<?xml version="1.0" encoding="UTF-8" standalone="no" ?>
<gpx xmlns="http://www.topografix.com/GPX/1/1" xmlns:xsi="http://www.w3.org/2001/XMLSchema-instance" xsi:schemaLocation="http://www.topografix.com/GPX/1/1 http://www.topografix.com/GPX/1/1/gpx.xsd" version="1.1" creator="VisuGPX - https://www.visugpx.com">
  <metadata>
    <name>2021-01-02 le Donon</name>
    <desc><![CDATA[File with points/tracks from Locus Map/3.49.1]]></desc>
  </metadata>
  <trk>
    <name><![CDATA[2021-01-02 le Donon]]></name>
    <extensions>
      <line xmlns="http://www.topografix.com/GPX/gpx_style/0/2">
        <color>0000FF</color>
        <opacity>0.59</opacity>
        <width>6.0</width>
      </line>
    </extensions>
    <trkseg>
      <trkpt lat="48.50678" lon="7.14709">
        <ele>670.93</ele>
        <time>2021-01-02T08:18:06.000Z</time>
      </trkpt>
      <trkpt lat="48.50671" lon="7.1472">
        <ele>675.26</ele>
        <time>2021-01-02T08:19:12.000Z</time>
      </trkpt>
      <trkpt lat="48.50663" lon="7.14726">
        <ele>674.06</ele>
        <time>2021-01-02T08:19:21.000Z</time>
      </trkpt>
      <trkpt lat="48.50659" lon="7.1474">
        <ele>671.72</ele>
        <time>2021-01-02T08:19:31.000Z</time>
      </trkpt>
      <trkpt lat="48.50658" lon="7.14753">
        <ele>669.33</ele>
        <time>2021-01-02T08:19:41.000Z</time>
      </trkpt>
      <trkpt lat="48.50655" lon="7.14766">
        <ele>668.84</ele>
        <time>2021-01-02T08:19:51.000Z</time>
      </trkpt>
      <trkpt lat="48.50652" lon="7.14779">
        <ele>667.61</ele>
        <time>2021-01-02T08:20:00.000Z</time>
      </trkpt>
      <trkpt lat="48.5065" lon="7.14793">
        <ele>666.42</ele>
        <time>2021-01-02T08:20:10.000Z</time>
      </trkpt>
      <trkpt lat="48.50647" lon="7.14807">
        <ele>665.38</ele>
        <time>2021-01-02T08:20:20.000Z</time>
      </trkpt>
      <trkpt lat="48.50643" lon="7.14821">
        <ele>665.31</ele>
        <time>2021-01-02T08:20:28.000Z</time>
      </trkpt>
      <trkpt lat="48.50641" lon="7.14834">
        <ele>667.02</ele>
        <time>2021-01-02T08:20:37.000Z</time>
      </trkpt>
      <trkpt lat="48.50639" lon="7.14848">
        <ele>668.55</ele>
        <time>2021-01-02T08:20:45.000Z</time>
      </trkpt>
      <trkpt lat="48.50638" lon="7.14862">
        <ele>669.38</ele>
        <time>2021-01-02T08:20:54.000Z</time>
      </trkpt>
      <trkpt lat="48.50635" lon="7.14876">
        <ele>671.53</ele>
        <time>2021-01-02T08:21:09.000Z</time>
      </trkpt>
      <trkpt lat="48.50631" lon="7.14889">
        <ele>672.53</ele>
        <time>2021-01-02T08:21:19.000Z</time>
      </trkpt>
      <trkpt lat="48.5063" lon="7.14903">
        <ele>672.64</ele>
        <time>2021-01-02T08:21:33.000Z</time>
      </trkpt>
      <trkpt lat="48.50626" lon="7.14916">
        <ele>672.73</ele>
        <time>2021-01-02T08:21:44.000Z</time>
      </trkpt>
      <trkpt lat="48.50624" lon="7.1493">
        <ele>672.87</ele>
        <time>2021-01-02T08:21:56.000Z</time>
      </trkpt>
      <trkpt lat="48.50629" lon="7.14943">
        <ele>673.91</ele>
        <time>2021-01-02T08:22:11.000Z</time>
      </trkpt>
      <trkpt lat="48.50628" lon="7.14958">
        <ele>675.64</ele>
        <time>2021-01-02T08:22:28.000Z</time>
      </trkpt>
      <trkpt lat="48.50631" lon="7.14972">
        <ele>678.4</ele>
        <time>2021-01-02T08:22:39.000Z</time>
      </trkpt>
      <trkpt lat="48.50632" lon="7.14986">
        <ele>681.37</ele>
        <time>2021-01-02T08:22:50.000Z</time>
      </trkpt>
      <trkpt lat="48.50634" lon="7.14999">
        <ele>682.73</ele>
        <time>2021-01-02T08:23:05.000Z</time>
      </trkpt>
      <trkpt lat="48.50633" lon="7.15014">
        <ele>684.78</ele>
        <time>2021-01-02T08:23:14.000Z</time>
      </trkpt>
      <trkpt lat="48.50634" lon="7.15031">
        <ele>687.72</ele>
        <time>2021-01-02T08:23:35.000Z</time>
      </trkpt>
      <trkpt lat="48.50633" lon="7.15047">
        <ele>690.22</ele>
        <time>2021-01-02T08:23:54.000Z</time>
      </trkpt>
      <trkpt lat="48.50636" lon="7.15064">
        <ele>692.79</ele>
        <time>2021-01-02T08:24:14.000Z</time>
      </trkpt>
      <trkpt lat="48.50635" lon="7.15078">
        <ele>695.39</ele>
        <time>2021-01-02T08:24:26.000Z</time>
      </trkpt>
      <trkpt lat="48.50636" lon="7.15091">
        <ele>698.75</ele>
        <time>2021-01-02T08:24:41.000Z</time>
      </trkpt>
      <trkpt lat="48.50637" lon="7.15105">
        <ele>701.17</ele>
        <time>2021-01-02T08:24:54.000Z</time>
      </trkpt>
      <trkpt lat="48.5064" lon="7.15118">
        <ele>702.45</ele>
        <time>2021-01-02T08:25:13.000Z</time>
      </trkpt>
      <trkpt lat="48.50643" lon="7.15132">
        <ele>703.59</ele>
        <time>2021-01-02T08:25:34.000Z</time>
      </trkpt>
      <trkpt lat="48.50645" lon="7.15147">
        <ele>706.53</ele>
        <time>2021-01-02T08:25:45.000Z</time>
      </trkpt>
      <trkpt lat="48.50647" lon="7.1516">
        <ele>708.6</ele>
        <time>2021-01-02T08:25:53.000Z</time>
      </trkpt>
      <trkpt lat="48.50644" lon="7.15174">
        <ele>711.85</ele>
        <time>2021-01-02T08:26:06.000Z</time>
      </trkpt>
      <trkpt lat="48.50648" lon="7.15186">
        <ele>713.63</ele>
        <time>2021-01-02T08:26:20.000Z</time>
      </trkpt>
      <trkpt lat="48.50649" lon="7.15201">
        <ele>714.56</ele>
        <time>2021-01-02T08:26:34.000Z</time>
      </trkpt>
      <trkpt lat="48.50649" lon="7.15216">
        <ele>716.72</ele>
        <time>2021-01-02T08:26:52.000Z</time>
      </trkpt>
      <trkpt lat="48.50644" lon="7.15241">
        <ele>718.74</ele>
        <time>2021-01-02T08:27:16.000Z</time>
      </trkpt>
      <trkpt lat="48.50645" lon="7.15256">
        <ele>719.74</ele>
        <time>2021-01-02T08:27:33.000Z</time>
      </trkpt>
      <trkpt lat="48.50645" lon="7.15269">
        <ele>719.27</ele>
        <time>2021-01-02T08:27:44.000Z</time>
      </trkpt>
      <trkpt lat="48.50645" lon="7.15284">
        <ele>719.85</ele>
        <time>2021-01-02T08:27:55.000Z</time>
      </trkpt>
      <trkpt lat="48.50646" lon="7.15297">
        <ele>720.64</ele>
        <time>2021-01-02T08:28:05.000Z</time>
      </trkpt>
      <trkpt lat="48.50644" lon="7.1531">
        <ele>722.86</ele>
        <time>2021-01-02T08:28:15.000Z</time>
      </trkpt>
      <trkpt lat="48.50645" lon="7.15325">
        <ele>726.63</ele>
        <time>2021-01-02T08:28:27.000Z</time>
      </trkpt>
      <trkpt lat="48.50648" lon="7.15338">
        <ele>727.37</ele>
        <time>2021-01-02T08:28:40.000Z</time>
      </trkpt>
      <trkpt lat="48.50653" lon="7.1535">
        <ele>727.57</ele>
        <time>2021-01-02T08:28:52.000Z</time>
      </trkpt>
      <trkpt lat="48.50659" lon="7.15362">
        <ele>727.69</ele>
        <time>2021-01-02T08:29:03.000Z</time>
      </trkpt>
      <trkpt lat="48.50665" lon="7.15373">
        <ele>727.69</ele>
        <time>2021-01-02T08:29:14.000Z</time>
      </trkpt>
      <trkpt lat="48.50669" lon="7.15386">
        <ele>729.61</ele>
        <time>2021-01-02T08:29:26.000Z</time>
      </trkpt>
      <trkpt lat="48.50681" lon="7.15401">
        <ele>731.57</ele>
        <time>2021-01-02T08:29:51.000Z</time>
      </trkpt>
      <trkpt lat="48.50691" lon="7.1541">
        <ele>733.24</ele>
        <time>2021-01-02T08:30:22.000Z</time>
      </trkpt>
      <trkpt lat="48.507" lon="7.15415">
        <ele>733.27</ele>
        <time>2021-01-02T08:30:35.000Z</time>
      </trkpt>
      <trkpt lat="48.50709" lon="7.15421">
        <ele>732.99</ele>
        <time>2021-01-02T08:30:51.000Z</time>
      </trkpt>
      <trkpt lat="48.50721" lon="7.15429">
        <ele>733.64</ele>
        <time>2021-01-02T08:31:11.000Z</time>
      </trkpt>
      <trkpt lat="48.50739" lon="7.15436">
        <ele>738.42</ele>
        <time>2021-01-02T08:31:19.000Z</time>
      </trkpt>
      <trkpt lat="48.50747" lon="7.15449">
        <ele>748.62</ele>
        <time>2021-01-02T08:33:29.000Z</time>
      </trkpt>
      <trkpt lat="48.50757" lon="7.15452">
        <ele>746.77</ele>
        <time>2021-01-02T08:33:56.000Z</time>
      </trkpt>
      <trkpt lat="48.50765" lon="7.1546">
        <ele>745.7</ele>
        <time>2021-01-02T08:34:11.000Z</time>
      </trkpt>
      <trkpt lat="48.50774" lon="7.15466">
        <ele>745.84</ele>
        <time>2021-01-02T08:34:20.000Z</time>
      </trkpt>
      <trkpt lat="48.5078" lon="7.15478">
        <ele>746.17</ele>
        <time>2021-01-02T08:34:34.000Z</time>
      </trkpt>
      <trkpt lat="48.50787" lon="7.15487">
        <ele>746.34</ele>
        <time>2021-01-02T08:34:44.000Z</time>
      </trkpt>
      <trkpt lat="48.50792" lon="7.15501">
        <ele>746.74</ele>
        <time>2021-01-02T08:34:58.000Z</time>
      </trkpt>
      <trkpt lat="48.50797" lon="7.15514">
        <ele>746.99</ele>
        <time>2021-01-02T08:35:14.000Z</time>
      </trkpt>
      <trkpt lat="48.50804" lon="7.15524">
        <ele>747.44</ele>
        <time>2021-01-02T08:35:24.000Z</time>
      </trkpt>
      <trkpt lat="48.50808" lon="7.15537">
        <ele>749.74</ele>
        <time>2021-01-02T08:35:32.000Z</time>
      </trkpt>
      <trkpt lat="48.50816" lon="7.15547">
        <ele>751.43</ele>
        <time>2021-01-02T08:35:43.000Z</time>
      </trkpt>
      <trkpt lat="48.50824" lon="7.15554">
        <ele>754.27</ele>
        <time>2021-01-02T08:35:51.000Z</time>
      </trkpt>
      <trkpt lat="48.50832" lon="7.15562">
        <ele>756.53</ele>
        <time>2021-01-02T08:35:59.000Z</time>
      </trkpt>
      <trkpt lat="48.50841" lon="7.1557">
        <ele>758.52</ele>
        <time>2021-01-02T08:36:12.000Z</time>
      </trkpt>
      <trkpt lat="48.50848" lon="7.1559">
        <ele>761.97</ele>
        <time>2021-01-02T08:36:34.000Z</time>
      </trkpt>
      <trkpt lat="48.50856" lon="7.15599">
        <ele>763.9</ele>
        <time>2021-01-02T08:36:44.000Z</time>
      </trkpt>
      <trkpt lat="48.50864" lon="7.15619">
        <ele>768.04</ele>
        <time>2021-01-02T08:37:10.000Z</time>
      </trkpt>
      <trkpt lat="48.50871" lon="7.15628">
        <ele>769.67</ele>
        <time>2021-01-02T08:37:19.000Z</time>
      </trkpt>
      <trkpt lat="48.50876" lon="7.15639">
        <ele>772.93</ele>
        <time>2021-01-02T08:37:31.000Z</time>
      </trkpt>
      <trkpt lat="48.50884" lon="7.15655">
        <ele>776.47</ele>
        <time>2021-01-02T08:37:45.000Z</time>
      </trkpt>
      <trkpt lat="48.50888" lon="7.15667">
        <ele>780.77</ele>
        <time>2021-01-02T08:38:06.000Z</time>
      </trkpt>
      <trkpt lat="48.50896" lon="7.15677">
        <ele>782.12</ele>
        <time>2021-01-02T08:38:21.000Z</time>
      </trkpt>
      <trkpt lat="48.50902" lon="7.15689">
        <ele>784.64</ele>
        <time>2021-01-02T08:38:34.000Z</time>
      </trkpt>
      <trkpt lat="48.5091" lon="7.15697">
        <ele>785.26</ele>
        <time>2021-01-02T08:38:46.000Z</time>
      </trkpt>
      <trkpt lat="48.50918" lon="7.15705">
        <ele>786.14</ele>
        <time>2021-01-02T08:38:59.000Z</time>
      </trkpt>
      <trkpt lat="48.50926" lon="7.15712">
        <ele>786.77</ele>
        <time>2021-01-02T08:39:10.000Z</time>
      </trkpt>
      <trkpt lat="48.50933" lon="7.15721">
        <ele>788.94</ele>
        <time>2021-01-02T08:39:26.000Z</time>
      </trkpt>
      <trkpt lat="48.50941" lon="7.15727">
        <ele>790.6</ele>
        <time>2021-01-02T08:39:38.000Z</time>
      </trkpt>
      <trkpt lat="48.50948" lon="7.15736">
        <ele>792.4</ele>
        <time>2021-01-02T08:40:01.000Z</time>
      </trkpt>
      <trkpt lat="48.5096" lon="7.15738">
        <ele>792.47</ele>
        <time>2021-01-02T08:40:24.000Z</time>
      </trkpt>
      <trkpt lat="48.50969" lon="7.15743">
        <ele>792.76</ele>
        <time>2021-01-02T08:40:34.000Z</time>
      </trkpt>
      <trkpt lat="48.50977" lon="7.1575">
        <ele>791.5</ele>
        <time>2021-01-02T08:40:50.000Z</time>
      </trkpt>
      <trkpt lat="48.50986" lon="7.15756">
        <ele>791.42</ele>
        <time>2021-01-02T08:41:20.000Z</time>
      </trkpt>
      <trkpt lat="48.50995" lon="7.15758">
        <ele>792.63</ele>
        <time>2021-01-02T08:41:31.000Z</time>
      </trkpt>
      <trkpt lat="48.51004" lon="7.15763">
        <ele>795.73</ele>
        <time>2021-01-02T08:41:47.000Z</time>
      </trkpt>
      <trkpt lat="48.51012" lon="7.15771">
        <ele>795.28</ele>
        <time>2021-01-02T08:41:57.000Z</time>
      </trkpt>
      <trkpt lat="48.5102" lon="7.15776">
        <ele>794.31</ele>
        <time>2021-01-02T08:42:06.000Z</time>
      </trkpt>
      <trkpt lat="48.51029" lon="7.15783">
        <ele>792.94</ele>
        <time>2021-01-02T08:42:18.000Z</time>
      </trkpt>
      <trkpt lat="48.51037" lon="7.1579">
        <ele>790.73</ele>
        <time>2021-01-02T08:42:32.000Z</time>
      </trkpt>
      <trkpt lat="48.51043" lon="7.158">
        <ele>788.37</ele>
        <time>2021-01-02T08:42:49.000Z</time>
      </trkpt>
      <trkpt lat="48.5105" lon="7.15808">
        <ele>788.3</ele>
        <time>2021-01-02T08:43:01.000Z</time>
      </trkpt>
      <trkpt lat="48.51058" lon="7.15817">
        <ele>788.35</ele>
        <time>2021-01-02T08:43:17.000Z</time>
      </trkpt>
      <trkpt lat="48.51067" lon="7.15823">
        <ele>788.17</ele>
        <time>2021-01-02T08:43:29.000Z</time>
      </trkpt>
      <trkpt lat="48.51073" lon="7.15833">
        <ele>787.68</ele>
        <time>2021-01-02T08:43:43.000Z</time>
      </trkpt>
      <trkpt lat="48.51082" lon="7.1584">
        <ele>787.37</ele>
        <time>2021-01-02T08:43:52.000Z</time>
      </trkpt>
      <trkpt lat="48.51097" lon="7.15841">
        <ele>793.87</ele>
        <time>2021-01-02T08:44:30.000Z</time>
      </trkpt>
      <trkpt lat="48.51107" lon="7.15854">
        <ele>805.12</ele>
        <time>2021-01-02T08:45:54.000Z</time>
      </trkpt>
      <trkpt lat="48.51116" lon="7.15859">
        <ele>807.67</ele>
        <time>2021-01-02T08:46:09.000Z</time>
      </trkpt>
      <trkpt lat="48.51121" lon="7.15871">
        <ele>807.97</ele>
        <time>2021-01-02T08:46:23.000Z</time>
      </trkpt>
      <trkpt lat="48.5113" lon="7.15877">
        <ele>808.17</ele>
        <time>2021-01-02T08:46:36.000Z</time>
      </trkpt>
      <trkpt lat="48.51139" lon="7.1588">
        <ele>809.22</ele>
        <time>2021-01-02T08:46:49.000Z</time>
      </trkpt>
      <trkpt lat="48.51147" lon="7.15888">
        <ele>810.44</ele>
        <time>2021-01-02T08:47:01.000Z</time>
      </trkpt>
      <trkpt lat="48.51154" lon="7.15897">
        <ele>810.84</ele>
        <time>2021-01-02T08:47:12.000Z</time>
      </trkpt>
      <trkpt lat="48.51162" lon="7.15905">
        <ele>811.27</ele>
        <time>2021-01-02T08:47:23.000Z</time>
      </trkpt>
      <trkpt lat="48.51171" lon="7.15909">
        <ele>811.37</ele>
        <time>2021-01-02T08:47:35.000Z</time>
      </trkpt>
      <trkpt lat="48.5118" lon="7.15914">
        <ele>811.73</ele>
        <time>2021-01-02T08:47:53.000Z</time>
      </trkpt>
      <trkpt lat="48.51189" lon="7.15918">
        <ele>811.22</ele>
        <time>2021-01-02T08:48:10.000Z</time>
      </trkpt>
      <trkpt lat="48.51196" lon="7.15926">
        <ele>811.1</ele>
        <time>2021-01-02T08:48:21.000Z</time>
      </trkpt>
      <trkpt lat="48.51205" lon="7.15932">
        <ele>810.81</ele>
        <time>2021-01-02T08:48:31.000Z</time>
      </trkpt>
      <trkpt lat="48.51214" lon="7.1594">
        <ele>810.37</ele>
        <time>2021-01-02T08:48:39.000Z</time>
      </trkpt>
      <trkpt lat="48.51221" lon="7.15949">
        <ele>810.15</ele>
        <time>2021-01-02T08:48:47.000Z</time>
      </trkpt>
      <trkpt lat="48.5123" lon="7.15953">
        <ele>818</ele>
        <time>2021-01-02T08:49:39.000Z</time>
      </trkpt>
      <trkpt lat="48.51237" lon="7.15961">
        <ele>817.18</ele>
        <time>2021-01-02T08:49:48.000Z</time>
      </trkpt>
      <trkpt lat="48.51246" lon="7.15967">
        <ele>817.37</ele>
        <time>2021-01-02T08:49:58.000Z</time>
      </trkpt>
      <trkpt lat="48.51253" lon="7.15975">
        <ele>816.87</ele>
        <time>2021-01-02T08:50:11.000Z</time>
      </trkpt>
      <trkpt lat="48.5126" lon="7.15985">
        <ele>817.27</ele>
        <time>2021-01-02T08:50:24.000Z</time>
      </trkpt>
      <trkpt lat="48.51265" lon="7.15997">
        <ele>818.36</ele>
        <time>2021-01-02T08:50:38.000Z</time>
      </trkpt>
      <trkpt lat="48.51272" lon="7.16005">
        <ele>819.93</ele>
        <time>2021-01-02T08:50:53.000Z</time>
      </trkpt>
      <trkpt lat="48.51277" lon="7.16017">
        <ele>822.11</ele>
        <time>2021-01-02T08:51:07.000Z</time>
      </trkpt>
      <trkpt lat="48.51284" lon="7.16026">
        <ele>824.33</ele>
        <time>2021-01-02T08:51:22.000Z</time>
      </trkpt>
      <trkpt lat="48.51292" lon="7.16035">
        <ele>826.61</ele>
        <time>2021-01-02T08:51:37.000Z</time>
      </trkpt>
      <trkpt lat="48.51299" lon="7.16044">
        <ele>828.41</ele>
        <time>2021-01-02T08:51:50.000Z</time>
      </trkpt>
      <trkpt lat="48.51305" lon="7.16055">
        <ele>830.04</ele>
        <time>2021-01-02T08:52:03.000Z</time>
      </trkpt>
      <trkpt lat="48.51311" lon="7.16064">
        <ele>830.95</ele>
        <time>2021-01-02T08:52:13.000Z</time>
      </trkpt>
      <trkpt lat="48.51318" lon="7.16074">
        <ele>830.88</ele>
        <time>2021-01-02T08:52:27.000Z</time>
      </trkpt>
      <trkpt lat="48.51325" lon="7.16083">
        <ele>830.35</ele>
        <time>2021-01-02T08:52:39.000Z</time>
      </trkpt>
      <trkpt lat="48.51338" lon="7.16098">
        <ele>833.52</ele>
        <time>2021-01-02T08:54:28.000Z</time>
      </trkpt>
      <trkpt lat="48.51346" lon="7.16107">
        <ele>835.52</ele>
        <time>2021-01-02T08:54:49.000Z</time>
      </trkpt>
      <trkpt lat="48.51352" lon="7.16117">
        <ele>835.47</ele>
        <time>2021-01-02T08:55:03.000Z</time>
      </trkpt>
      <trkpt lat="48.51357" lon="7.16129">
        <ele>835.09</ele>
        <time>2021-01-02T08:55:18.000Z</time>
      </trkpt>
      <trkpt lat="48.51361" lon="7.16143">
        <ele>836.35</ele>
        <time>2021-01-02T08:55:37.000Z</time>
      </trkpt>
      <trkpt lat="48.51367" lon="7.16154">
        <ele>837.27</ele>
        <time>2021-01-02T08:55:55.000Z</time>
      </trkpt>
      <trkpt lat="48.51373" lon="7.16165">
        <ele>838.45</ele>
        <time>2021-01-02T08:56:11.000Z</time>
      </trkpt>
      <trkpt lat="48.51381" lon="7.16187">
        <ele>841.15</ele>
        <time>2021-01-02T08:56:53.000Z</time>
      </trkpt>
      <trkpt lat="48.5139" lon="7.16193">
        <ele>847.11</ele>
        <time>2021-01-02T08:57:58.000Z</time>
      </trkpt>
      <trkpt lat="48.51398" lon="7.16201">
        <ele>849.16</ele>
        <time>2021-01-02T08:58:41.000Z</time>
      </trkpt>
      <trkpt lat="48.51403" lon="7.16214">
        <ele>848.58</ele>
        <time>2021-01-02T08:58:55.000Z</time>
      </trkpt>
      <trkpt lat="48.51406" lon="7.16227">
        <ele>848.27</ele>
        <time>2021-01-02T08:59:10.000Z</time>
      </trkpt>
      <trkpt lat="48.51411" lon="7.16239">
        <ele>847.59</ele>
        <time>2021-01-02T08:59:23.000Z</time>
      </trkpt>
      <trkpt lat="48.51416" lon="7.1625">
        <ele>846.63</ele>
        <time>2021-01-02T08:59:35.000Z</time>
      </trkpt>
      <trkpt lat="48.5142" lon="7.16262">
        <ele>846.15</ele>
        <time>2021-01-02T08:59:49.000Z</time>
      </trkpt>
      <trkpt lat="48.51425" lon="7.16284">
        <ele>853.45</ele>
        <time>2021-01-02T09:00:59.000Z</time>
      </trkpt>
      <trkpt lat="48.51436" lon="7.16297">
        <ele>853.95</ele>
        <time>2021-01-02T09:01:50.000Z</time>
      </trkpt>
      <trkpt lat="48.51444" lon="7.16304">
        <ele>853.44</ele>
        <time>2021-01-02T09:02:14.000Z</time>
      </trkpt>
      <trkpt lat="48.51447" lon="7.16318">
        <ele>851.42</ele>
        <time>2021-01-02T09:02:45.000Z</time>
      </trkpt>
      <trkpt lat="48.51449" lon="7.16332">
        <ele>850.17</ele>
        <time>2021-01-02T09:03:02.000Z</time>
      </trkpt>
      <trkpt lat="48.51452" lon="7.16345">
        <ele>850.91</ele>
        <time>2021-01-02T09:03:11.000Z</time>
      </trkpt>
      <trkpt lat="48.51455" lon="7.16358">
        <ele>851.45</ele>
        <time>2021-01-02T09:03:23.000Z</time>
      </trkpt>
      <trkpt lat="48.51459" lon="7.16371">
        <ele>849.93</ele>
        <time>2021-01-02T09:03:38.000Z</time>
      </trkpt>
      <trkpt lat="48.51461" lon="7.16386">
        <ele>849.71</ele>
        <time>2021-01-02T09:03:56.000Z</time>
      </trkpt>
      <trkpt lat="48.51464" lon="7.164">
        <ele>849.01</ele>
        <time>2021-01-02T09:04:10.000Z</time>
      </trkpt>
      <trkpt lat="48.51463" lon="7.16414">
        <ele>845.53</ele>
        <time>2021-01-02T09:05:48.000Z</time>
      </trkpt>
      <trkpt lat="48.51465" lon="7.16427">
        <ele>848.17</ele>
        <time>2021-01-02T09:06:09.000Z</time>
      </trkpt>
      <trkpt lat="48.51464" lon="7.16441">
        <ele>843.91</ele>
        <time>2021-01-02T09:07:12.000Z</time>
      </trkpt>
      <trkpt lat="48.51464" lon="7.16427">
        <ele>842.04</ele>
        <time>2021-01-02T09:07:53.000Z</time>
      </trkpt>
      <trkpt lat="48.51462" lon="7.16413">
        <ele>841.38</ele>
        <time>2021-01-02T09:08:11.000Z</time>
      </trkpt>
      <trkpt lat="48.51461" lon="7.164">
        <ele>841.43</ele>
        <time>2021-01-02T09:08:39.000Z</time>
      </trkpt>
      <trkpt lat="48.51466" lon="7.16389">
        <ele>840.99</ele>
        <time>2021-01-02T09:08:53.000Z</time>
      </trkpt>
      <trkpt lat="48.51469" lon="7.16376">
        <ele>839.1</ele>
        <time>2021-01-02T09:09:06.000Z</time>
      </trkpt>
      <trkpt lat="48.51479" lon="7.16378">
        <ele>834.06</ele>
        <time>2021-01-02T09:09:41.000Z</time>
      </trkpt>
      <trkpt lat="48.51493" lon="7.16367">
        <ele>830.15</ele>
        <time>2021-01-02T09:11:06.000Z</time>
      </trkpt>
      <trkpt lat="48.51501" lon="7.1636">
        <ele>827.31</ele>
        <time>2021-01-02T09:11:42.000Z</time>
      </trkpt>
      <trkpt lat="48.51502" lon="7.16346">
        <ele>826.71</ele>
        <time>2021-01-02T09:12:14.000Z</time>
      </trkpt>
      <trkpt lat="48.51499" lon="7.16333">
        <ele>825.19</ele>
        <time>2021-01-02T09:12:34.000Z</time>
      </trkpt>
      <trkpt lat="48.51499" lon="7.16319">
        <ele>820.85</ele>
        <time>2021-01-02T09:12:54.000Z</time>
      </trkpt>
      <trkpt lat="48.51501" lon="7.16305">
        <ele>818.17</ele>
        <time>2021-01-02T09:13:07.000Z</time>
      </trkpt>
      <trkpt lat="48.51501" lon="7.1629">
        <ele>816.67</ele>
        <time>2021-01-02T09:13:13.000Z</time>
      </trkpt>
      <trkpt lat="48.51501" lon="7.16275">
        <ele>816.13</ele>
        <time>2021-01-02T09:13:23.000Z</time>
      </trkpt>
      <trkpt lat="48.51504" lon="7.16262">
        <ele>813.2</ele>
        <time>2021-01-02T09:13:35.000Z</time>
      </trkpt>
      <trkpt lat="48.51506" lon="7.16248">
        <ele>809.58</ele>
        <time>2021-01-02T09:13:46.000Z</time>
      </trkpt>
      <trkpt lat="48.51506" lon="7.16233">
        <ele>804.8</ele>
        <time>2021-01-02T09:13:59.000Z</time>
      </trkpt>
      <trkpt lat="48.5151" lon="7.16221">
        <ele>801.53</ele>
        <time>2021-01-02T09:14:07.000Z</time>
      </trkpt>
      <trkpt lat="48.51512" lon="7.16206">
        <ele>797.51</ele>
        <time>2021-01-02T09:14:17.000Z</time>
      </trkpt>
      <trkpt lat="48.51516" lon="7.16193">
        <ele>793.7</ele>
        <time>2021-01-02T09:14:26.000Z</time>
      </trkpt>
      <trkpt lat="48.5152" lon="7.16181">
        <ele>790.63</ele>
        <time>2021-01-02T09:14:34.000Z</time>
      </trkpt>
      <trkpt lat="48.51525" lon="7.16193">
        <ele>788.81</ele>
        <time>2021-01-02T09:16:33.000Z</time>
      </trkpt>
      <trkpt lat="48.51532" lon="7.16203">
        <ele>788.23</ele>
        <time>2021-01-02T09:16:41.000Z</time>
      </trkpt>
      <trkpt lat="48.51538" lon="7.16213">
        <ele>789.37</ele>
        <time>2021-01-02T09:24:10.000Z</time>
      </trkpt>
      <trkpt lat="48.51543" lon="7.16226">
        <ele>790.22</ele>
        <time>2021-01-02T09:24:22.000Z</time>
      </trkpt>
      <trkpt lat="48.51546" lon="7.16239">
        <ele>787.19</ele>
        <time>2021-01-02T09:24:35.000Z</time>
      </trkpt>
      <trkpt lat="48.5155" lon="7.16252">
        <ele>785.92</ele>
        <time>2021-01-02T09:24:50.000Z</time>
      </trkpt>
      <trkpt lat="48.51552" lon="7.16266">
        <ele>784.52</ele>
        <time>2021-01-02T09:25:00.000Z</time>
      </trkpt>
      <trkpt lat="48.51553" lon="7.1628">
        <ele>783.55</ele>
        <time>2021-01-02T09:25:11.000Z</time>
      </trkpt>
      <trkpt lat="48.51556" lon="7.16295">
        <ele>782.9</ele>
        <time>2021-01-02T09:25:20.000Z</time>
      </trkpt>
      <trkpt lat="48.51557" lon="7.16309">
        <ele>782.47</ele>
        <time>2021-01-02T09:25:29.000Z</time>
      </trkpt>
      <trkpt lat="48.5156" lon="7.16322">
        <ele>783.17</ele>
        <time>2021-01-02T09:25:40.000Z</time>
      </trkpt>
      <trkpt lat="48.51562" lon="7.16337">
        <ele>783.68</ele>
        <time>2021-01-02T09:25:52.000Z</time>
      </trkpt>
      <trkpt lat="48.51565" lon="7.1635">
        <ele>783.21</ele>
        <time>2021-01-02T09:26:02.000Z</time>
      </trkpt>
      <trkpt lat="48.51567" lon="7.16364">
        <ele>783.18</ele>
        <time>2021-01-02T09:26:13.000Z</time>
      </trkpt>
      <trkpt lat="48.51571" lon="7.16377">
        <ele>782.33</ele>
        <time>2021-01-02T09:26:23.000Z</time>
      </trkpt>
      <trkpt lat="48.51571" lon="7.16391">
        <ele>781.78</ele>
        <time>2021-01-02T09:26:32.000Z</time>
      </trkpt>
      <trkpt lat="48.51572" lon="7.16406">
        <ele>781.07</ele>
        <time>2021-01-02T09:26:42.000Z</time>
      </trkpt>
      <trkpt lat="48.51573" lon="7.16421">
        <ele>780.86</ele>
        <time>2021-01-02T09:26:51.000Z</time>
      </trkpt>
      <trkpt lat="48.51575" lon="7.16434">
        <ele>780.71</ele>
        <time>2021-01-02T09:27:01.000Z</time>
      </trkpt>
      <trkpt lat="48.51576" lon="7.16449">
        <ele>780.08</ele>
        <time>2021-01-02T09:27:12.000Z</time>
      </trkpt>
      <trkpt lat="48.51575" lon="7.16464">
        <ele>779.96</ele>
        <time>2021-01-02T09:27:20.000Z</time>
      </trkpt>
      <trkpt lat="48.51576" lon="7.16477">
        <ele>779.18</ele>
        <time>2021-01-02T09:27:29.000Z</time>
      </trkpt>
      <trkpt lat="48.51576" lon="7.16491">
        <ele>779.03</ele>
        <time>2021-01-02T09:27:39.000Z</time>
      </trkpt>
      <trkpt lat="48.51574" lon="7.16505">
        <ele>780.82</ele>
        <time>2021-01-02T09:27:50.000Z</time>
      </trkpt>
      <trkpt lat="48.51574" lon="7.16519">
        <ele>780.96</ele>
        <time>2021-01-02T09:28:02.000Z</time>
      </trkpt>
      <trkpt lat="48.51572" lon="7.16533">
        <ele>781.27</ele>
        <time>2021-01-02T09:28:12.000Z</time>
      </trkpt>
      <trkpt lat="48.51569" lon="7.16547">
        <ele>781.74</ele>
        <time>2021-01-02T09:28:22.000Z</time>
      </trkpt>
      <trkpt lat="48.51567" lon="7.16561">
        <ele>782.27</ele>
        <time>2021-01-02T09:28:31.000Z</time>
      </trkpt>
      <trkpt lat="48.51564" lon="7.16574">
        <ele>782.84</ele>
        <time>2021-01-02T09:28:40.000Z</time>
      </trkpt>
      <trkpt lat="48.51559" lon="7.16587">
        <ele>783.64</ele>
        <time>2021-01-02T09:28:48.000Z</time>
      </trkpt>
      <trkpt lat="48.51554" lon="7.166">
        <ele>785.1</ele>
        <time>2021-01-02T09:28:57.000Z</time>
      </trkpt>
      <trkpt lat="48.51551" lon="7.16614">
        <ele>787.25</ele>
        <time>2021-01-02T09:29:05.000Z</time>
      </trkpt>
      <trkpt lat="48.5155" lon="7.16629">
        <ele>790.08</ele>
        <time>2021-01-02T09:29:13.000Z</time>
      </trkpt>
      <trkpt lat="48.51546" lon="7.16641">
        <ele>793.61</ele>
        <time>2021-01-02T09:29:26.000Z</time>
      </trkpt>
      <trkpt lat="48.51551" lon="7.16654">
        <ele>803.35</ele>
        <time>2021-01-02T09:30:52.000Z</time>
      </trkpt>
      <trkpt lat="48.51552" lon="7.16668">
        <ele>804.21</ele>
        <time>2021-01-02T09:31:04.000Z</time>
      </trkpt>
      <trkpt lat="48.51551" lon="7.16682">
        <ele>803.65</ele>
        <time>2021-01-02T09:31:16.000Z</time>
      </trkpt>
      <trkpt lat="48.51552" lon="7.16696">
        <ele>801.32</ele>
        <time>2021-01-02T09:32:16.000Z</time>
      </trkpt>
      <trkpt lat="48.51552" lon="7.16712">
        <ele>800.71</ele>
        <time>2021-01-02T09:32:48.000Z</time>
      </trkpt>
      <trkpt lat="48.51553" lon="7.16725">
        <ele>801.55</ele>
        <time>2021-01-02T09:32:55.000Z</time>
      </trkpt>
      <trkpt lat="48.51556" lon="7.1674">
        <ele>800.14</ele>
        <time>2021-01-02T09:33:04.000Z</time>
      </trkpt>
      <trkpt lat="48.51558" lon="7.16754">
        <ele>798.76</ele>
        <time>2021-01-02T09:33:14.000Z</time>
      </trkpt>
      <trkpt lat="48.51561" lon="7.16768">
        <ele>795.54</ele>
        <time>2021-01-02T09:33:25.000Z</time>
      </trkpt>
      <trkpt lat="48.51561" lon="7.16782">
        <ele>791.28</ele>
        <time>2021-01-02T09:33:33.000Z</time>
      </trkpt>
      <trkpt lat="48.51563" lon="7.16795">
        <ele>789.1</ele>
        <time>2021-01-02T09:33:43.000Z</time>
      </trkpt>
      <trkpt lat="48.51564" lon="7.1681">
        <ele>786.98</ele>
        <time>2021-01-02T09:33:54.000Z</time>
      </trkpt>
      <trkpt lat="48.51566" lon="7.16825">
        <ele>785.2</ele>
        <time>2021-01-02T09:34:01.000Z</time>
      </trkpt>
      <trkpt lat="48.51566" lon="7.16839">
        <ele>782.98</ele>
        <time>2021-01-02T09:34:08.000Z</time>
      </trkpt>
      <trkpt lat="48.51568" lon="7.16854">
        <ele>780.77</ele>
        <time>2021-01-02T09:34:16.000Z</time>
      </trkpt>
      <trkpt lat="48.51568" lon="7.16867">
        <ele>777.57</ele>
        <time>2021-01-02T09:34:28.000Z</time>
      </trkpt>
      <trkpt lat="48.5157" lon="7.16882">
        <ele>773</ele>
        <time>2021-01-02T09:34:44.000Z</time>
      </trkpt>
      <trkpt lat="48.5157" lon="7.16896">
        <ele>771.27</ele>
        <time>2021-01-02T09:34:52.000Z</time>
      </trkpt>
      <trkpt lat="48.51568" lon="7.16909">
        <ele>768.28</ele>
        <time>2021-01-02T09:35:02.000Z</time>
      </trkpt>
      <trkpt lat="48.51568" lon="7.16923">
        <ele>766.7</ele>
        <time>2021-01-02T09:35:09.000Z</time>
      </trkpt>
      <trkpt lat="48.51564" lon="7.16936">
        <ele>765.26</ele>
        <time>2021-01-02T09:35:16.000Z</time>
      </trkpt>
      <trkpt lat="48.51567" lon="7.16949">
        <ele>765.16</ele>
        <time>2021-01-02T09:35:28.000Z</time>
      </trkpt>
      <trkpt lat="48.51571" lon="7.16962">
        <ele>767.32</ele>
        <time>2021-01-02T09:35:41.000Z</time>
      </trkpt>
      <trkpt lat="48.51577" lon="7.16972">
        <ele>767.83</ele>
        <time>2021-01-02T09:35:52.000Z</time>
      </trkpt>
      <trkpt lat="48.51583" lon="7.16983">
        <ele>768.34</ele>
        <time>2021-01-02T09:36:04.000Z</time>
      </trkpt>
      <trkpt lat="48.51587" lon="7.16996">
        <ele>771.13</ele>
        <time>2021-01-02T09:36:37.000Z</time>
      </trkpt>
      <trkpt lat="48.51585" lon="7.17009">
        <ele>772.47</ele>
        <time>2021-01-02T09:36:49.000Z</time>
      </trkpt>
      <trkpt lat="48.51589" lon="7.17022">
        <ele>771.93</ele>
        <time>2021-01-02T09:37:04.000Z</time>
      </trkpt>
      <trkpt lat="48.51595" lon="7.17033">
        <ele>770.1</ele>
        <time>2021-01-02T09:37:15.000Z</time>
      </trkpt>
      <trkpt lat="48.51593" lon="7.17048">
        <ele>776.08</ele>
        <time>2021-01-02T09:38:16.000Z</time>
      </trkpt>
      <trkpt lat="48.51591" lon="7.17062">
        <ele>778.76</ele>
        <time>2021-01-02T09:38:28.000Z</time>
      </trkpt>
      <trkpt lat="48.51588" lon="7.17075">
        <ele>780.26</ele>
        <time>2021-01-02T09:38:39.000Z</time>
      </trkpt>
      <trkpt lat="48.51586" lon="7.17089">
        <ele>781.1</ele>
        <time>2021-01-02T09:38:53.000Z</time>
      </trkpt>
      <trkpt lat="48.51581" lon="7.17102">
        <ele>779.42</ele>
        <time>2021-01-02T09:39:03.000Z</time>
      </trkpt>
      <trkpt lat="48.51577" lon="7.17115">
        <ele>777.97</ele>
        <time>2021-01-02T09:39:12.000Z</time>
      </trkpt>
      <trkpt lat="48.51573" lon="7.17128">
        <ele>776.66</ele>
        <time>2021-01-02T09:39:24.000Z</time>
      </trkpt>
      <trkpt lat="48.51573" lon="7.17142">
        <ele>776.65</ele>
        <time>2021-01-02T09:39:34.000Z</time>
      </trkpt>
      <trkpt lat="48.51572" lon="7.17157">
        <ele>778.46</ele>
        <time>2021-01-02T09:39:42.000Z</time>
      </trkpt>
      <trkpt lat="48.51572" lon="7.17171">
        <ele>778.04</ele>
        <time>2021-01-02T09:39:51.000Z</time>
      </trkpt>
      <trkpt lat="48.51572" lon="7.17185">
        <ele>778.58</ele>
        <time>2021-01-02T09:40:01.000Z</time>
      </trkpt>
      <trkpt lat="48.5157" lon="7.17199">
        <ele>778.61</ele>
        <time>2021-01-02T09:40:12.000Z</time>
      </trkpt>
      <trkpt lat="48.5157" lon="7.17213">
        <ele>778.67</ele>
        <time>2021-01-02T09:40:23.000Z</time>
      </trkpt>
      <trkpt lat="48.51567" lon="7.17226">
        <ele>780.78</ele>
        <time>2021-01-02T09:40:31.000Z</time>
      </trkpt>
      <trkpt lat="48.51563" lon="7.1724">
        <ele>782.72</ele>
        <time>2021-01-02T09:40:40.000Z</time>
      </trkpt>
      <trkpt lat="48.51564" lon="7.17254">
        <ele>786.17</ele>
        <time>2021-01-02T09:41:13.000Z</time>
      </trkpt>
      <trkpt lat="48.51567" lon="7.17268">
        <ele>789.02</ele>
        <time>2021-01-02T09:41:31.000Z</time>
      </trkpt>
      <trkpt lat="48.51573" lon="7.17279">
        <ele>788.48</ele>
        <time>2021-01-02T09:41:45.000Z</time>
      </trkpt>
      <trkpt lat="48.51579" lon="7.1729">
        <ele>792.51</ele>
        <time>2021-01-02T09:42:05.000Z</time>
      </trkpt>
      <trkpt lat="48.51588" lon="7.17286">
        <ele>793.55</ele>
        <time>2021-01-02T09:42:23.000Z</time>
      </trkpt>
      <trkpt lat="48.51596" lon="7.17279">
        <ele>793.98</ele>
        <time>2021-01-02T09:42:34.000Z</time>
      </trkpt>
      <trkpt lat="48.51602" lon="7.17268">
        <ele>795.56</ele>
        <time>2021-01-02T09:42:49.000Z</time>
      </trkpt>
      <trkpt lat="48.51609" lon="7.17259">
        <ele>795.67</ele>
        <time>2021-01-02T09:43:04.000Z</time>
      </trkpt>
      <trkpt lat="48.51618" lon="7.17253">
        <ele>798.35</ele>
        <time>2021-01-02T09:43:16.000Z</time>
      </trkpt>
      <trkpt lat="48.5163" lon="7.17251">
        <ele>799.7</ele>
        <time>2021-01-02T09:43:57.000Z</time>
      </trkpt>
      <trkpt lat="48.51641" lon="7.17252">
        <ele>802.02</ele>
        <time>2021-01-02T09:44:07.000Z</time>
      </trkpt>
      <trkpt lat="48.5165" lon="7.17256">
        <ele>804</ele>
        <time>2021-01-02T09:44:15.000Z</time>
      </trkpt>
      <trkpt lat="48.51659" lon="7.17261">
        <ele>806.41</ele>
        <time>2021-01-02T09:44:24.000Z</time>
      </trkpt>
      <trkpt lat="48.51667" lon="7.17267">
        <ele>809.71</ele>
        <time>2021-01-02T09:44:37.000Z</time>
      </trkpt>
      <trkpt lat="48.51676" lon="7.17274">
        <ele>812.38</ele>
        <time>2021-01-02T09:44:55.000Z</time>
      </trkpt>
      <trkpt lat="48.51685" lon="7.17279">
        <ele>814.24</ele>
        <time>2021-01-02T09:45:08.000Z</time>
      </trkpt>
      <trkpt lat="48.51693" lon="7.17285">
        <ele>816.42</ele>
        <time>2021-01-02T09:45:21.000Z</time>
      </trkpt>
      <trkpt lat="48.51702" lon="7.17288">
        <ele>818.04</ele>
        <time>2021-01-02T09:45:32.000Z</time>
      </trkpt>
      <trkpt lat="48.5171" lon="7.17294">
        <ele>819.33</ele>
        <time>2021-01-02T09:45:43.000Z</time>
      </trkpt>
      <trkpt lat="48.51719" lon="7.173">
        <ele>821.05</ele>
        <time>2021-01-02T09:45:57.000Z</time>
      </trkpt>
      <trkpt lat="48.51727" lon="7.17306">
        <ele>822.15</ele>
        <time>2021-01-02T09:46:10.000Z</time>
      </trkpt>
      <trkpt lat="48.51736" lon="7.17312">
        <ele>823.45</ele>
        <time>2021-01-02T09:46:22.000Z</time>
      </trkpt>
      <trkpt lat="48.51744" lon="7.17319">
        <ele>824.59</ele>
        <time>2021-01-02T09:46:33.000Z</time>
      </trkpt>
      <trkpt lat="48.51752" lon="7.17331">
        <ele>826</ele>
        <time>2021-01-02T09:46:53.000Z</time>
      </trkpt>
      <trkpt lat="48.51759" lon="7.1734">
        <ele>828.32</ele>
        <time>2021-01-02T09:47:05.000Z</time>
      </trkpt>
      <trkpt lat="48.51774" lon="7.17356">
        <ele>830.48</ele>
        <time>2021-01-02T09:47:30.000Z</time>
      </trkpt>
      <trkpt lat="48.51781" lon="7.17366">
        <ele>831.48</ele>
        <time>2021-01-02T09:47:44.000Z</time>
      </trkpt>
      <trkpt lat="48.51792" lon="7.17371">
        <ele>830.7</ele>
        <time>2021-01-02T09:48:02.000Z</time>
      </trkpt>
      <trkpt lat="48.51801" lon="7.17376">
        <ele>830.98</ele>
        <time>2021-01-02T09:48:16.000Z</time>
      </trkpt>
      <trkpt lat="48.5181" lon="7.17381">
        <ele>830.88</ele>
        <time>2021-01-02T09:48:27.000Z</time>
      </trkpt>
      <trkpt lat="48.51819" lon="7.17386">
        <ele>832.05</ele>
        <time>2021-01-02T09:48:41.000Z</time>
      </trkpt>
      <trkpt lat="48.51828" lon="7.1739">
        <ele>832.55</ele>
        <time>2021-01-02T09:48:53.000Z</time>
      </trkpt>
      <trkpt lat="48.51836" lon="7.17398">
        <ele>834.22</ele>
        <time>2021-01-02T09:49:08.000Z</time>
      </trkpt>
      <trkpt lat="48.51844" lon="7.17406">
        <ele>837.31</ele>
        <time>2021-01-02T09:49:24.000Z</time>
      </trkpt>
      <trkpt lat="48.51853" lon="7.17417">
        <ele>850.11</ele>
        <time>2021-01-02T09:52:29.000Z</time>
      </trkpt>
      <trkpt lat="48.51848" lon="7.17428">
        <ele>855.92</ele>
        <time>2021-01-02T09:53:13.000Z</time>
      </trkpt>
      <trkpt lat="48.51843" lon="7.1744">
        <ele>857.05</ele>
        <time>2021-01-02T09:53:24.000Z</time>
      </trkpt>
      <trkpt lat="48.51836" lon="7.1745">
        <ele>857.78</ele>
        <time>2021-01-02T09:53:37.000Z</time>
      </trkpt>
      <trkpt lat="48.51829" lon="7.1746">
        <ele>858.42</ele>
        <time>2021-01-02T09:53:50.000Z</time>
      </trkpt>
      <trkpt lat="48.51825" lon="7.17473">
        <ele>860.42</ele>
        <time>2021-01-02T09:54:03.000Z</time>
      </trkpt>
      <trkpt lat="48.51815" lon="7.17486">
        <ele>862.86</ele>
        <time>2021-01-02T09:54:33.000Z</time>
      </trkpt>
      <trkpt lat="48.51806" lon="7.17488">
        <ele>864.21</ele>
        <time>2021-01-02T09:54:46.000Z</time>
      </trkpt>
      <trkpt lat="48.51803" lon="7.17502">
        <ele>865.14</ele>
        <time>2021-01-02T09:55:00.000Z</time>
      </trkpt>
      <trkpt lat="48.51795" lon="7.17513">
        <ele>867.63</ele>
        <time>2021-01-02T09:55:24.000Z</time>
      </trkpt>
      <trkpt lat="48.51786" lon="7.17514">
        <ele>867.29</ele>
        <time>2021-01-02T09:55:34.000Z</time>
      </trkpt>
      <trkpt lat="48.51777" lon="7.17515">
        <ele>866.02</ele>
        <time>2021-01-02T09:55:49.000Z</time>
      </trkpt>
      <trkpt lat="48.51768" lon="7.17522">
        <ele>865.19</ele>
        <time>2021-01-02T09:55:59.000Z</time>
      </trkpt>
      <trkpt lat="48.51759" lon="7.17522">
        <ele>864.09</ele>
        <time>2021-01-02T09:56:13.000Z</time>
      </trkpt>
      <trkpt lat="48.51749" lon="7.17526">
        <ele>864.35</ele>
        <time>2021-01-02T09:56:30.000Z</time>
      </trkpt>
      <trkpt lat="48.5174" lon="7.17525">
        <ele>865.68</ele>
        <time>2021-01-02T09:56:43.000Z</time>
      </trkpt>
      <trkpt lat="48.51731" lon="7.17524">
        <ele>866.27</ele>
        <time>2021-01-02T09:56:57.000Z</time>
      </trkpt>
      <trkpt lat="48.51722" lon="7.17524">
        <ele>866.78</ele>
        <time>2021-01-02T09:57:10.000Z</time>
      </trkpt>
      <trkpt lat="48.51713" lon="7.1752">
        <ele>867.94</ele>
        <time>2021-01-02T09:57:25.000Z</time>
      </trkpt>
      <trkpt lat="48.51703" lon="7.17518">
        <ele>869.6</ele>
        <time>2021-01-02T09:57:40.000Z</time>
      </trkpt>
      <trkpt lat="48.51694" lon="7.17522">
        <ele>872.83</ele>
        <time>2021-01-02T09:58:05.000Z</time>
      </trkpt>
      <trkpt lat="48.51685" lon="7.1752">
        <ele>882.15</ele>
        <time>2021-01-02T09:58:22.000Z</time>
      </trkpt>
      <trkpt lat="48.51676" lon="7.17514">
        <ele>884.17</ele>
        <time>2021-01-02T09:58:40.000Z</time>
      </trkpt>
      <trkpt lat="48.51666" lon="7.17517">
        <ele>887.62</ele>
        <time>2021-01-02T09:58:55.000Z</time>
      </trkpt>
      <trkpt lat="48.51657" lon="7.17521">
        <ele>891.21</ele>
        <time>2021-01-02T09:59:11.000Z</time>
      </trkpt>
      <trkpt lat="48.51649" lon="7.17528">
        <ele>892.3</ele>
        <time>2021-01-02T09:59:25.000Z</time>
      </trkpt>
      <trkpt lat="48.5164" lon="7.17533">
        <ele>894.01</ele>
        <time>2021-01-02T09:59:45.000Z</time>
      </trkpt>
      <trkpt lat="48.51631" lon="7.17537">
        <ele>896.81</ele>
        <time>2021-01-02T09:59:59.000Z</time>
      </trkpt>
      <trkpt lat="48.51623" lon="7.17545">
        <ele>898.64</ele>
        <time>2021-01-02T10:00:13.000Z</time>
      </trkpt>
      <trkpt lat="48.51615" lon="7.17553">
        <ele>900.7</ele>
        <time>2021-01-02T10:01:08.000Z</time>
      </trkpt>
      <trkpt lat="48.51609" lon="7.17564">
        <ele>902.42</ele>
        <time>2021-01-02T10:01:23.000Z</time>
      </trkpt>
      <trkpt lat="48.5161" lon="7.17578">
        <ele>904.03</ele>
        <time>2021-01-02T10:01:48.000Z</time>
      </trkpt>
      <trkpt lat="48.51619" lon="7.17585">
        <ele>911.35</ele>
        <time>2021-01-02T10:03:16.000Z</time>
      </trkpt>
      <trkpt lat="48.51601" lon="7.17578">
        <ele>913.6</ele>
        <time>2021-01-02T10:08:06.000Z</time>
      </trkpt>
      <trkpt lat="48.51593" lon="7.17586">
        <ele>913.58</ele>
        <time>2021-01-02T10:08:11.000Z</time>
      </trkpt>
      <trkpt lat="48.51601" lon="7.17589">
        <ele>913.35</ele>
        <time>2021-01-02T10:10:11.000Z</time>
      </trkpt>
      <trkpt lat="48.51611" lon="7.17586">
        <ele>914.58</ele>
        <time>2021-01-02T10:10:42.000Z</time>
      </trkpt>
      <trkpt lat="48.51607" lon="7.17573">
        <ele>909.32</ele>
        <time>2021-01-02T10:28:26.000Z</time>
      </trkpt>
      <trkpt lat="48.5161" lon="7.17558">
        <ele>906.78</ele>
        <time>2021-01-02T10:28:42.000Z</time>
      </trkpt>
      <trkpt lat="48.51617" lon="7.17549">
        <ele>903.73</ele>
        <time>2021-01-02T10:28:52.000Z</time>
      </trkpt>
      <trkpt lat="48.51624" lon="7.17542">
        <ele>900.58</ele>
        <time>2021-01-02T10:29:04.000Z</time>
      </trkpt>
      <trkpt lat="48.51633" lon="7.17536">
        <ele>898.07</ele>
        <time>2021-01-02T10:29:13.000Z</time>
      </trkpt>
      <trkpt lat="48.51642" lon="7.17533">
        <ele>895.55</ele>
        <time>2021-01-02T10:29:21.000Z</time>
      </trkpt>
      <trkpt lat="48.5165" lon="7.17527">
        <ele>891.58</ele>
        <time>2021-01-02T10:29:33.000Z</time>
      </trkpt>
      <trkpt lat="48.51659" lon="7.1752">
        <ele>888.29</ele>
        <time>2021-01-02T10:29:44.000Z</time>
      </trkpt>
      <trkpt lat="48.51668" lon="7.17517">
        <ele>885.45</ele>
        <time>2021-01-02T10:29:53.000Z</time>
      </trkpt>
      <trkpt lat="48.51678" lon="7.17518">
        <ele>883.58</ele>
        <time>2021-01-02T10:30:01.000Z</time>
      </trkpt>
      <trkpt lat="48.51687" lon="7.17521">
        <ele>881.71</ele>
        <time>2021-01-02T10:30:13.000Z</time>
      </trkpt>
      <trkpt lat="48.51696" lon="7.17518">
        <ele>880.15</ele>
        <time>2021-01-02T10:30:23.000Z</time>
      </trkpt>
      <trkpt lat="48.51705" lon="7.17517">
        <ele>878.86</ele>
        <time>2021-01-02T10:30:33.000Z</time>
      </trkpt>
      <trkpt lat="48.51715" lon="7.17517">
        <ele>877.62</ele>
        <time>2021-01-02T10:30:43.000Z</time>
      </trkpt>
      <trkpt lat="48.51724" lon="7.17518">
        <ele>876.51</ele>
        <time>2021-01-02T10:30:54.000Z</time>
      </trkpt>
      <trkpt lat="48.51734" lon="7.17519">
        <ele>875.81</ele>
        <time>2021-01-02T10:31:06.000Z</time>
      </trkpt>
      <trkpt lat="48.51743" lon="7.17519">
        <ele>874.15</ele>
        <time>2021-01-02T10:31:17.000Z</time>
      </trkpt>
      <trkpt lat="48.51752" lon="7.17519">
        <ele>872.94</ele>
        <time>2021-01-02T10:31:26.000Z</time>
      </trkpt>
      <trkpt lat="48.51762" lon="7.17521">
        <ele>871.63</ele>
        <time>2021-01-02T10:31:40.000Z</time>
      </trkpt>
      <trkpt lat="48.51773" lon="7.17514">
        <ele>869.7</ele>
        <time>2021-01-02T10:32:18.000Z</time>
      </trkpt>
      <trkpt lat="48.51782" lon="7.17512">
        <ele>865</ele>
        <time>2021-01-02T10:32:33.000Z</time>
      </trkpt>
      <trkpt lat="48.51791" lon="7.1751">
        <ele>864.15</ele>
        <time>2021-01-02T10:32:44.000Z</time>
      </trkpt>
      <trkpt lat="48.518" lon="7.17504">
        <ele>863.29</ele>
        <time>2021-01-02T10:32:59.000Z</time>
      </trkpt>
      <trkpt lat="48.51807" lon="7.17496">
        <ele>860.37</ele>
        <time>2021-01-02T10:33:13.000Z</time>
      </trkpt>
      <trkpt lat="48.51816" lon="7.17491">
        <ele>857.15</ele>
        <time>2021-01-02T10:33:27.000Z</time>
      </trkpt>
      <trkpt lat="48.51823" lon="7.17483">
        <ele>855.52</ele>
        <time>2021-01-02T10:33:35.000Z</time>
      </trkpt>
      <trkpt lat="48.51828" lon="7.17471">
        <ele>853.05</ele>
        <time>2021-01-02T10:33:48.000Z</time>
      </trkpt>
      <trkpt lat="48.51835" lon="7.17461">
        <ele>851.91</ele>
        <time>2021-01-02T10:34:00.000Z</time>
      </trkpt>
      <trkpt lat="48.51841" lon="7.17449">
        <ele>851.38</ele>
        <time>2021-01-02T10:34:10.000Z</time>
      </trkpt>
      <trkpt lat="48.51848" lon="7.17439">
        <ele>850.34</ele>
        <time>2021-01-02T10:34:23.000Z</time>
      </trkpt>
      <trkpt lat="48.51855" lon="7.17429">
        <ele>849.49</ele>
        <time>2021-01-02T10:34:35.000Z</time>
      </trkpt>
      <trkpt lat="48.51861" lon="7.17412">
        <ele>850.48</ele>
        <time>2021-01-02T10:35:03.000Z</time>
      </trkpt>
      <trkpt lat="48.51853" lon="7.17405">
        <ele>851.01</ele>
        <time>2021-01-02T10:35:13.000Z</time>
      </trkpt>
      <trkpt lat="48.51844" lon="7.174">
        <ele>850.69</ele>
        <time>2021-01-02T10:35:22.000Z</time>
      </trkpt>
      <trkpt lat="48.51836" lon="7.17392">
        <ele>849.61</ele>
        <time>2021-01-02T10:35:32.000Z</time>
      </trkpt>
      <trkpt lat="48.51828" lon="7.17386">
        <ele>848.31</ele>
        <time>2021-01-02T10:35:45.000Z</time>
      </trkpt>
      <trkpt lat="48.51819" lon="7.17382">
        <ele>847.69</ele>
        <time>2021-01-02T10:35:53.000Z</time>
      </trkpt>
      <trkpt lat="48.5181" lon="7.1738">
        <ele>846.71</ele>
        <time>2021-01-02T10:36:04.000Z</time>
      </trkpt>
      <trkpt lat="48.51801" lon="7.17376">
        <ele>845.52</ele>
        <time>2021-01-02T10:36:14.000Z</time>
      </trkpt>
      <trkpt lat="48.51792" lon="7.17371">
        <ele>844.51</ele>
        <time>2021-01-02T10:36:23.000Z</time>
      </trkpt>
      <trkpt lat="48.51783" lon="7.17366">
        <ele>842.85</ele>
        <time>2021-01-02T10:36:33.000Z</time>
      </trkpt>
      <trkpt lat="48.51776" lon="7.17358">
        <ele>840.65</ele>
        <time>2021-01-02T10:36:44.000Z</time>
      </trkpt>
      <trkpt lat="48.51768" lon="7.1735">
        <ele>838.04</ele>
        <time>2021-01-02T10:36:55.000Z</time>
      </trkpt>
      <trkpt lat="48.5176" lon="7.17343">
        <ele>836.65</ele>
        <time>2021-01-02T10:37:03.000Z</time>
      </trkpt>
      <trkpt lat="48.51753" lon="7.17333">
        <ele>834.52</ele>
        <time>2021-01-02T10:37:14.000Z</time>
      </trkpt>
      <trkpt lat="48.51746" lon="7.17323">
        <ele>831.85</ele>
        <time>2021-01-02T10:37:29.000Z</time>
      </trkpt>
      <trkpt lat="48.51737" lon="7.17315">
        <ele>826.82</ele>
        <time>2021-01-02T10:37:44.000Z</time>
      </trkpt>
      <trkpt lat="48.51728" lon="7.1731">
        <ele>823.37</ele>
        <time>2021-01-02T10:37:54.000Z</time>
      </trkpt>
      <trkpt lat="48.51719" lon="7.17304">
        <ele>819.38</ele>
        <time>2021-01-02T10:38:07.000Z</time>
      </trkpt>
      <trkpt lat="48.51711" lon="7.17299">
        <ele>816.07</ele>
        <time>2021-01-02T10:38:20.000Z</time>
      </trkpt>
      <trkpt lat="48.51702" lon="7.17296">
        <ele>813.05</ele>
        <time>2021-01-02T10:38:32.000Z</time>
      </trkpt>
      <trkpt lat="48.51693" lon="7.17295">
        <ele>810.25</ele>
        <time>2021-01-02T10:38:43.000Z</time>
      </trkpt>
      <trkpt lat="48.51684" lon="7.17289">
        <ele>808.21</ele>
        <time>2021-01-02T10:38:59.000Z</time>
      </trkpt>
      <trkpt lat="48.51675" lon="7.17283">
        <ele>806.24</ele>
        <time>2021-01-02T10:39:11.000Z</time>
      </trkpt>
      <trkpt lat="48.51668" lon="7.17275">
        <ele>805.09</ele>
        <time>2021-01-02T10:39:20.000Z</time>
      </trkpt>
      <trkpt lat="48.51659" lon="7.17268">
        <ele>804.21</ele>
        <time>2021-01-02T10:39:28.000Z</time>
      </trkpt>
      <trkpt lat="48.51651" lon="7.17262">
        <ele>802.45</ele>
        <time>2021-01-02T10:39:38.000Z</time>
      </trkpt>
      <trkpt lat="48.51642" lon="7.17257">
        <ele>801.04</ele>
        <time>2021-01-02T10:39:47.000Z</time>
      </trkpt>
      <trkpt lat="48.51633" lon="7.17255">
        <ele>799.82</ele>
        <time>2021-01-02T10:39:55.000Z</time>
      </trkpt>
      <trkpt lat="48.51624" lon="7.17255">
        <ele>798.64</ele>
        <time>2021-01-02T10:40:04.000Z</time>
      </trkpt>
      <trkpt lat="48.51615" lon="7.17257">
        <ele>796.64</ele>
        <time>2021-01-02T10:40:14.000Z</time>
      </trkpt>
      <trkpt lat="48.51606" lon="7.17263">
        <ele>794.52</ele>
        <time>2021-01-02T10:40:25.000Z</time>
      </trkpt>
      <trkpt lat="48.51597" lon="7.17269">
        <ele>793.13</ele>
        <time>2021-01-02T10:40:33.000Z</time>
      </trkpt>
      <trkpt lat="48.51591" lon="7.17279">
        <ele>791.84</ele>
        <time>2021-01-02T10:40:42.000Z</time>
      </trkpt>
      <trkpt lat="48.51582" lon="7.17283">
        <ele>791</ele>
        <time>2021-01-02T10:40:59.000Z</time>
      </trkpt>
      <trkpt lat="48.51573" lon="7.17286">
        <ele>790.21</ele>
        <time>2021-01-02T10:41:12.000Z</time>
      </trkpt>
      <trkpt lat="48.51564" lon="7.17289">
        <ele>789.78</ele>
        <time>2021-01-02T10:41:20.000Z</time>
      </trkpt>
      <trkpt lat="48.51555" lon="7.17288">
        <ele>789.96</ele>
        <time>2021-01-02T10:41:30.000Z</time>
      </trkpt>
      <trkpt lat="48.51546" lon="7.17292">
        <ele>789.49</ele>
        <time>2021-01-02T10:41:39.000Z</time>
      </trkpt>
      <trkpt lat="48.51537" lon="7.17296">
        <ele>788.71</ele>
        <time>2021-01-02T10:41:48.000Z</time>
      </trkpt>
      <trkpt lat="48.51528" lon="7.17299">
        <ele>787.51</ele>
        <time>2021-01-02T10:41:58.000Z</time>
      </trkpt>
      <trkpt lat="48.51519" lon="7.17303">
        <ele>785.81</ele>
        <time>2021-01-02T10:42:13.000Z</time>
      </trkpt>
      <trkpt lat="48.51521" lon="7.17289">
        <ele>782.34</ele>
        <time>2021-01-02T10:42:40.000Z</time>
      </trkpt>
      <trkpt lat="48.51528" lon="7.17281">
        <ele>781.11</ele>
        <time>2021-01-02T10:42:49.000Z</time>
      </trkpt>
      <trkpt lat="48.51534" lon="7.17269">
        <ele>780.19</ele>
        <time>2021-01-02T10:43:02.000Z</time>
      </trkpt>
      <trkpt lat="48.51538" lon="7.17256">
        <ele>778.69</ele>
        <time>2021-01-02T10:43:16.000Z</time>
      </trkpt>
      <trkpt lat="48.51546" lon="7.17248">
        <ele>777.41</ele>
        <time>2021-01-02T10:43:26.000Z</time>
      </trkpt>
      <trkpt lat="48.51551" lon="7.17236">
        <ele>776.01</ele>
        <time>2021-01-02T10:43:36.000Z</time>
      </trkpt>
      <trkpt lat="48.51558" lon="7.17226">
        <ele>775.14</ele>
        <time>2021-01-02T10:43:45.000Z</time>
      </trkpt>
      <trkpt lat="48.51565" lon="7.17215">
        <ele>774.21</ele>
        <time>2021-01-02T10:43:51.000Z</time>
      </trkpt>
      <trkpt lat="48.51571" lon="7.17203">
        <ele>772.85</ele>
        <time>2021-01-02T10:44:00.000Z</time>
      </trkpt>
      <trkpt lat="48.51579" lon="7.17194">
        <ele>772.11</ele>
        <time>2021-01-02T10:44:07.000Z</time>
      </trkpt>
      <trkpt lat="48.51582" lon="7.17181">
        <ele>770.94</ele>
        <time>2021-01-02T10:44:16.000Z</time>
      </trkpt>
      <trkpt lat="48.51581" lon="7.17167">
        <ele>769.04</ele>
        <time>2021-01-02T10:44:26.000Z</time>
      </trkpt>
      <trkpt lat="48.51581" lon="7.17153">
        <ele>767.99</ele>
        <time>2021-01-02T10:44:34.000Z</time>
      </trkpt>
      <trkpt lat="48.51585" lon="7.17139">
        <ele>766.69</ele>
        <time>2021-01-02T10:44:43.000Z</time>
      </trkpt>
      <trkpt lat="48.51588" lon="7.17125">
        <ele>765.69</ele>
        <time>2021-01-02T10:44:53.000Z</time>
      </trkpt>
      <trkpt lat="48.51587" lon="7.1711">
        <ele>764.72</ele>
        <time>2021-01-02T10:45:02.000Z</time>
      </trkpt>
      <trkpt lat="48.5159" lon="7.17096">
        <ele>762.82</ele>
        <time>2021-01-02T10:45:13.000Z</time>
      </trkpt>
      <trkpt lat="48.51589" lon="7.17083">
        <ele>761.73</ele>
        <time>2021-01-02T10:45:20.000Z</time>
      </trkpt>
      <trkpt lat="48.5159" lon="7.17069">
        <ele>760.91</ele>
        <time>2021-01-02T10:45:28.000Z</time>
      </trkpt>
      <trkpt lat="48.51591" lon="7.17055">
        <ele>759.27</ele>
        <time>2021-01-02T10:45:37.000Z</time>
      </trkpt>
      <trkpt lat="48.51595" lon="7.1703">
        <ele>760.93</ele>
        <time>2021-01-02T10:45:56.000Z</time>
      </trkpt>
      <trkpt lat="48.51596" lon="7.17015">
        <ele>762.05</ele>
        <time>2021-01-02T10:46:06.000Z</time>
      </trkpt>
      <trkpt lat="48.51594" lon="7.17002">
        <ele>763.01</ele>
        <time>2021-01-02T10:46:15.000Z</time>
      </trkpt>
      <trkpt lat="48.5159" lon="7.16988">
        <ele>764.63</ele>
        <time>2021-01-02T10:46:22.000Z</time>
      </trkpt>
      <trkpt lat="48.51585" lon="7.16977">
        <ele>765.75</ele>
        <time>2021-01-02T10:46:30.000Z</time>
      </trkpt>
      <trkpt lat="48.51582" lon="7.1696">
        <ele>767.55</ele>
        <time>2021-01-02T10:46:48.000Z</time>
      </trkpt>
      <trkpt lat="48.51577" lon="7.16949">
        <ele>769.02</ele>
        <time>2021-01-02T10:46:57.000Z</time>
      </trkpt>
      <trkpt lat="48.51574" lon="7.16936">
        <ele>775.37</ele>
        <time>2021-01-02T10:48:21.000Z</time>
      </trkpt>
      <trkpt lat="48.51575" lon="7.16921">
        <ele>779.49</ele>
        <time>2021-01-02T10:48:34.000Z</time>
      </trkpt>
      <trkpt lat="48.51571" lon="7.16909">
        <ele>782.34</ele>
        <time>2021-01-02T10:48:48.000Z</time>
      </trkpt>
      <trkpt lat="48.51563" lon="7.16901">
        <ele>784.8</ele>
        <time>2021-01-02T10:49:06.000Z</time>
      </trkpt>
      <trkpt lat="48.51557" lon="7.1689">
        <ele>786.65</ele>
        <time>2021-01-02T10:49:23.000Z</time>
      </trkpt>
      <trkpt lat="48.5155" lon="7.16879">
        <ele>788.08</ele>
        <time>2021-01-02T10:50:20.000Z</time>
      </trkpt>
      <trkpt lat="48.51543" lon="7.1687">
        <ele>790.62</ele>
        <time>2021-01-02T10:50:40.000Z</time>
      </trkpt>
      <trkpt lat="48.51539" lon="7.16857">
        <ele>794.87</ele>
        <time>2021-01-02T10:51:00.000Z</time>
      </trkpt>
      <trkpt lat="48.51536" lon="7.16844">
        <ele>797.07</ele>
        <time>2021-01-02T10:51:16.000Z</time>
      </trkpt>
      <trkpt lat="48.5153" lon="7.16828">
        <ele>797.65</ele>
        <time>2021-01-02T10:51:41.000Z</time>
      </trkpt>
      <trkpt lat="48.51524" lon="7.16809">
        <ele>802.1</ele>
        <time>2021-01-02T10:52:59.000Z</time>
      </trkpt>
      <trkpt lat="48.51513" lon="7.1679">
        <ele>801.85</ele>
        <time>2021-01-02T10:53:34.000Z</time>
      </trkpt>
      <trkpt lat="48.51508" lon="7.16778">
        <ele>807.31</ele>
        <time>2021-01-02T10:54:36.000Z</time>
      </trkpt>
      <trkpt lat="48.51498" lon="7.16762">
        <ele>812.1</ele>
        <time>2021-01-02T10:55:32.000Z</time>
      </trkpt>
      <trkpt lat="48.5149" lon="7.16767">
        <ele>813.67</ele>
        <time>2021-01-02T10:55:51.000Z</time>
      </trkpt>
      <trkpt lat="48.51481" lon="7.16763">
        <ele>812.9</ele>
        <time>2021-01-02T10:56:03.000Z</time>
      </trkpt>
      <trkpt lat="48.51472" lon="7.16757">
        <ele>812.48</ele>
        <time>2021-01-02T10:56:14.000Z</time>
      </trkpt>
      <trkpt lat="48.51463" lon="7.16752">
        <ele>812.6</ele>
        <time>2021-01-02T10:56:24.000Z</time>
      </trkpt>
      <trkpt lat="48.51454" lon="7.16749">
        <ele>812.38</ele>
        <time>2021-01-02T10:56:37.000Z</time>
      </trkpt>
      <trkpt lat="48.51445" lon="7.16749">
        <ele>812.87</ele>
        <time>2021-01-02T10:56:47.000Z</time>
      </trkpt>
      <trkpt lat="48.51435" lon="7.16746">
        <ele>813.57</ele>
        <time>2021-01-02T10:56:59.000Z</time>
      </trkpt>
      <trkpt lat="48.51426" lon="7.16744">
        <ele>814.27</ele>
        <time>2021-01-02T10:57:11.000Z</time>
      </trkpt>
      <trkpt lat="48.51417" lon="7.16748">
        <ele>815.17</ele>
        <time>2021-01-02T10:57:25.000Z</time>
      </trkpt>
      <trkpt lat="48.51408" lon="7.16746">
        <ele>816.93</ele>
        <time>2021-01-02T10:57:39.000Z</time>
      </trkpt>
      <trkpt lat="48.51412" lon="7.16733">
        <ele>820.47</ele>
        <time>2021-01-02T10:58:10.000Z</time>
      </trkpt>
      <trkpt lat="48.51417" lon="7.16722">
        <ele>820.48</ele>
        <time>2021-01-02T10:58:23.000Z</time>
      </trkpt>
      <trkpt lat="48.51426" lon="7.16718">
        <ele>820.68</ele>
        <time>2021-01-02T10:58:37.000Z</time>
      </trkpt>
      <trkpt lat="48.51435" lon="7.16708">
        <ele>820.93</ele>
        <time>2021-01-02T10:59:00.000Z</time>
      </trkpt>
      <trkpt lat="48.51443" lon="7.16701">
        <ele>819.1</ele>
        <time>2021-01-02T10:59:13.000Z</time>
      </trkpt>
      <trkpt lat="48.51456" lon="7.16697">
        <ele>821.65</ele>
        <time>2021-01-02T10:59:33.000Z</time>
      </trkpt>
      <trkpt lat="48.51452" lon="7.16684">
        <ele>826.28</ele>
        <time>2021-01-02T10:59:59.000Z</time>
      </trkpt>
      <trkpt lat="48.51442" lon="7.1668">
        <ele>826.64</ele>
        <time>2021-01-02T11:00:14.000Z</time>
      </trkpt>
      <trkpt lat="48.51449" lon="7.1667">
        <ele>836.79</ele>
        <time>2021-01-02T11:00:56.000Z</time>
      </trkpt>
      <trkpt lat="48.51453" lon="7.16658">
        <ele>839.91</ele>
        <time>2021-01-02T11:01:13.000Z</time>
      </trkpt>
      <trkpt lat="48.51454" lon="7.16642">
        <ele>842.3</ele>
        <time>2021-01-02T11:01:35.000Z</time>
      </trkpt>
      <trkpt lat="48.51452" lon="7.16627">
        <ele>843.87</ele>
        <time>2021-01-02T11:01:48.000Z</time>
      </trkpt>
      <trkpt lat="48.51452" lon="7.16613">
        <ele>844.67</ele>
        <time>2021-01-02T11:02:01.000Z</time>
      </trkpt>
      <trkpt lat="48.51449" lon="7.166">
        <ele>845.43</ele>
        <time>2021-01-02T11:02:16.000Z</time>
      </trkpt>
      <trkpt lat="48.51449" lon="7.16585">
        <ele>849.58</ele>
        <time>2021-01-02T11:02:43.000Z</time>
      </trkpt>
      <trkpt lat="48.51452" lon="7.16572">
        <ele>855.01</ele>
        <time>2021-01-02T11:02:57.000Z</time>
      </trkpt>
      <trkpt lat="48.51445" lon="7.16562">
        <ele>857.08</ele>
        <time>2021-01-02T11:03:11.000Z</time>
      </trkpt>
      <trkpt lat="48.51446" lon="7.16546">
        <ele>861.53</ele>
        <time>2021-01-02T11:03:30.000Z</time>
      </trkpt>
      <trkpt lat="48.51446" lon="7.16532">
        <ele>863.92</ele>
        <time>2021-01-02T11:03:42.000Z</time>
      </trkpt>
      <trkpt lat="48.51444" lon="7.16517">
        <ele>864.94</ele>
        <time>2021-01-02T11:03:51.000Z</time>
      </trkpt>
      <trkpt lat="48.51442" lon="7.16503">
        <ele>866.13</ele>
        <time>2021-01-02T11:04:03.000Z</time>
      </trkpt>
      <trkpt lat="48.51439" lon="7.16517">
        <ele>871.77</ele>
        <time>2021-01-02T11:05:07.000Z</time>
      </trkpt>
      <trkpt lat="48.51436" lon="7.16531">
        <ele>873.07</ele>
        <time>2021-01-02T11:05:19.000Z</time>
      </trkpt>
      <trkpt lat="48.51434" lon="7.16544">
        <ele>875.08</ele>
        <time>2021-01-02T11:05:36.000Z</time>
      </trkpt>
      <trkpt lat="48.51424" lon="7.1654">
        <ele>876.33</ele>
        <time>2021-01-02T11:06:10.000Z</time>
      </trkpt>
      <trkpt lat="48.5142" lon="7.16525">
        <ele>879.25</ele>
        <time>2021-01-02T11:06:33.000Z</time>
      </trkpt>
      <trkpt lat="48.51419" lon="7.16507">
        <ele>884.9</ele>
        <time>2021-01-02T11:07:18.000Z</time>
      </trkpt>
      <trkpt lat="48.51417" lon="7.1649">
        <ele>888.9</ele>
        <time>2021-01-02T11:07:51.000Z</time>
      </trkpt>
      <trkpt lat="48.5141" lon="7.16478">
        <ele>888.75</ele>
        <time>2021-01-02T11:08:20.000Z</time>
      </trkpt>
      <trkpt lat="48.51406" lon="7.1649">
        <ele>886.96</ele>
        <time>2021-01-02T11:09:15.000Z</time>
      </trkpt>
      <trkpt lat="48.51407" lon="7.16504">
        <ele>891.48</ele>
        <time>2021-01-02T11:09:42.000Z</time>
      </trkpt>
      <trkpt lat="48.51405" lon="7.16518">
        <ele>892.47</ele>
        <time>2021-01-02T11:10:05.000Z</time>
      </trkpt>
      <trkpt lat="48.51403" lon="7.16531">
        <ele>892.67</ele>
        <time>2021-01-02T11:10:23.000Z</time>
      </trkpt>
      <trkpt lat="48.51403" lon="7.16545">
        <ele>893.77</ele>
        <time>2021-01-02T11:10:39.000Z</time>
      </trkpt>
      <trkpt lat="48.51399" lon="7.16558">
        <ele>894.87</ele>
        <time>2021-01-02T11:10:54.000Z</time>
      </trkpt>
      <trkpt lat="48.51394" lon="7.16569">
        <ele>895.95</ele>
        <time>2021-01-02T11:11:11.000Z</time>
      </trkpt>
      <trkpt lat="48.51387" lon="7.1656">
        <ele>901.04</ele>
        <time>2021-01-02T11:11:57.000Z</time>
      </trkpt>
      <trkpt lat="48.51384" lon="7.16534">
        <ele>905.73</ele>
        <time>2021-01-02T11:12:46.000Z</time>
      </trkpt>
      <trkpt lat="48.51379" lon="7.16523">
        <ele>904.41</ele>
        <time>2021-01-02T11:12:58.000Z</time>
      </trkpt>
      <trkpt lat="48.51375" lon="7.1651">
        <ele>908.36</ele>
        <time>2021-01-02T11:13:19.000Z</time>
      </trkpt>
      <trkpt lat="48.51373" lon="7.16496">
        <ele>910.37</ele>
        <time>2021-01-02T11:13:34.000Z</time>
      </trkpt>
      <trkpt lat="48.51367" lon="7.16487">
        <ele>912.32</ele>
        <time>2021-01-02T11:13:52.000Z</time>
      </trkpt>
      <trkpt lat="48.5136" lon="7.16496">
        <ele>911.65</ele>
        <time>2021-01-02T11:14:14.000Z</time>
      </trkpt>
      <trkpt lat="48.51361" lon="7.1651">
        <ele>912.32</ele>
        <time>2021-01-02T11:14:29.000Z</time>
      </trkpt>
      <trkpt lat="48.5136" lon="7.16524">
        <ele>913.07</ele>
        <time>2021-01-02T11:14:41.000Z</time>
      </trkpt>
      <trkpt lat="48.51359" lon="7.16538">
        <ele>915.61</ele>
        <time>2021-01-02T11:15:00.000Z</time>
      </trkpt>
      <trkpt lat="48.51357" lon="7.16551">
        <ele>916.27</ele>
        <time>2021-01-02T11:15:13.000Z</time>
      </trkpt>
      <trkpt lat="48.51353" lon="7.16564">
        <ele>917.86</ele>
        <time>2021-01-02T11:15:26.000Z</time>
      </trkpt>
      <trkpt lat="48.51348" lon="7.16577">
        <ele>918.84</ele>
        <time>2021-01-02T11:15:38.000Z</time>
      </trkpt>
      <trkpt lat="48.5134" lon="7.16581">
        <ele>918.77</ele>
        <time>2021-01-02T11:15:50.000Z</time>
      </trkpt>
      <trkpt lat="48.51331" lon="7.16586">
        <ele>919.57</ele>
        <time>2021-01-02T11:16:05.000Z</time>
      </trkpt>
      <trkpt lat="48.51323" lon="7.16595">
        <ele>919.38</ele>
        <time>2021-01-02T11:16:18.000Z</time>
      </trkpt>
      <trkpt lat="48.51314" lon="7.16599">
        <ele>920.04</ele>
        <time>2021-01-02T11:16:30.000Z</time>
      </trkpt>
      <trkpt lat="48.51306" lon="7.16605">
        <ele>920.11</ele>
        <time>2021-01-02T11:16:55.000Z</time>
      </trkpt>
      <trkpt lat="48.51296" lon="7.16607">
        <ele>919.57</ele>
        <time>2021-01-02T11:17:07.000Z</time>
      </trkpt>
      <trkpt lat="48.51301" lon="7.16595">
        <ele>926.05</ele>
        <time>2021-01-02T11:17:50.000Z</time>
      </trkpt>
      <trkpt lat="48.51306" lon="7.16584">
        <ele>928.09</ele>
        <time>2021-01-02T11:18:03.000Z</time>
      </trkpt>
      <trkpt lat="48.51312" lon="7.16573">
        <ele>933.65</ele>
        <time>2021-01-02T11:18:22.000Z</time>
      </trkpt>
      <trkpt lat="48.51303" lon="7.16573">
        <ele>936.04</ele>
        <time>2021-01-02T11:18:45.000Z</time>
      </trkpt>
      <trkpt lat="48.51295" lon="7.1658">
        <ele>937.34</ele>
        <time>2021-01-02T11:19:02.000Z</time>
      </trkpt>
      <trkpt lat="48.51285" lon="7.16582">
        <ele>939.64</ele>
        <time>2021-01-02T11:19:18.000Z</time>
      </trkpt>
      <trkpt lat="48.51283" lon="7.16569">
        <ele>943.32</ele>
        <time>2021-01-02T11:20:07.000Z</time>
      </trkpt>
      <trkpt lat="48.51287" lon="7.16555">
        <ele>947.83</ele>
        <time>2021-01-02T11:20:53.000Z</time>
      </trkpt>
      <trkpt lat="48.5128" lon="7.16546">
        <ele>951.4</ele>
        <time>2021-01-02T11:21:15.000Z</time>
      </trkpt>
      <trkpt lat="48.51275" lon="7.16535">
        <ele>954.68</ele>
        <time>2021-01-02T11:21:29.000Z</time>
      </trkpt>
      <trkpt lat="48.51277" lon="7.16522">
        <ele>955.3</ele>
        <time>2021-01-02T11:21:46.000Z</time>
      </trkpt>
      <trkpt lat="48.51273" lon="7.1651">
        <ele>958.98</ele>
        <time>2021-01-02T11:22:44.000Z</time>
      </trkpt>
      <trkpt lat="48.5127" lon="7.16493">
        <ele>959.67</ele>
        <time>2021-01-02T11:23:18.000Z</time>
      </trkpt>
      <trkpt lat="48.51268" lon="7.1648">
        <ele>958.98</ele>
        <time>2021-01-02T11:23:30.000Z</time>
      </trkpt>
      <trkpt lat="48.51264" lon="7.16467">
        <ele>960.16</ele>
        <time>2021-01-02T11:24:04.000Z</time>
      </trkpt>
      <trkpt lat="48.51259" lon="7.16453">
        <ele>961.35</ele>
        <time>2021-01-02T11:26:06.000Z</time>
      </trkpt>
      <trkpt lat="48.51253" lon="7.1644">
        <ele>962.82</ele>
        <time>2021-01-02T11:26:43.000Z</time>
      </trkpt>
      <trkpt lat="48.51246" lon="7.1643">
        <ele>960.58</ele>
        <time>2021-01-02T11:28:35.000Z</time>
      </trkpt>
      <trkpt lat="48.51245" lon="7.16416">
        <ele>958.54</ele>
        <time>2021-01-02T11:29:00.000Z</time>
      </trkpt>
      <trkpt lat="48.51253" lon="7.16408">
        <ele>955.91</ele>
        <time>2021-01-02T11:29:20.000Z</time>
      </trkpt>
      <trkpt lat="48.51247" lon="7.16396">
        <ele>951.92</ele>
        <time>2021-01-02T11:30:21.000Z</time>
      </trkpt>
      <trkpt lat="48.51239" lon="7.16387">
        <ele>950.04</ele>
        <time>2021-01-02T11:30:34.000Z</time>
      </trkpt>
      <trkpt lat="48.5123" lon="7.16384">
        <ele>948.02</ele>
        <time>2021-01-02T11:30:42.000Z</time>
      </trkpt>
      <trkpt lat="48.51221" lon="7.16383">
        <ele>945.6</ele>
        <time>2021-01-02T11:30:52.000Z</time>
      </trkpt>
      <trkpt lat="48.51215" lon="7.16372">
        <ele>942.38</ele>
        <time>2021-01-02T11:31:01.000Z</time>
      </trkpt>
      <trkpt lat="48.51209" lon="7.1636">
        <ele>939.77</ele>
        <time>2021-01-02T11:31:11.000Z</time>
      </trkpt>
      <trkpt lat="48.512" lon="7.16354">
        <ele>935.87</ele>
        <time>2021-01-02T11:31:27.000Z</time>
      </trkpt>
      <trkpt lat="48.51191" lon="7.16354">
        <ele>933.1</ele>
        <time>2021-01-02T11:31:38.000Z</time>
      </trkpt>
      <trkpt lat="48.51185" lon="7.16344">
        <ele>930.24</ele>
        <time>2021-01-02T11:31:50.000Z</time>
      </trkpt>
      <trkpt lat="48.51176" lon="7.16338">
        <ele>928.01</ele>
        <time>2021-01-02T11:32:08.000Z</time>
      </trkpt>
      <trkpt lat="48.5117" lon="7.16327">
        <ele>926.73</ele>
        <time>2021-01-02T11:32:18.000Z</time>
      </trkpt>
      <trkpt lat="48.51162" lon="7.16319">
        <ele>925.13</ele>
        <time>2021-01-02T11:32:28.000Z</time>
      </trkpt>
      <trkpt lat="48.51153" lon="7.16313">
        <ele>924.17</ele>
        <time>2021-01-02T11:32:40.000Z</time>
      </trkpt>
      <trkpt lat="48.51147" lon="7.16302">
        <ele>923.87</ele>
        <time>2021-01-02T11:32:49.000Z</time>
      </trkpt>
      <trkpt lat="48.5114" lon="7.16293">
        <ele>924.25</ele>
        <time>2021-01-02T11:33:17.000Z</time>
      </trkpt>
      <trkpt lat="48.51133" lon="7.16284">
        <ele>924.1</ele>
        <time>2021-01-02T11:33:29.000Z</time>
      </trkpt>
      <trkpt lat="48.51124" lon="7.16276">
        <ele>921.27</ele>
        <time>2021-01-02T11:34:00.000Z</time>
      </trkpt>
      <trkpt lat="48.51117" lon="7.16265">
        <ele>920.73</ele>
        <time>2021-01-02T11:34:09.000Z</time>
      </trkpt>
      <trkpt lat="48.51109" lon="7.1626">
        <ele>919.5</ele>
        <time>2021-01-02T11:34:17.000Z</time>
      </trkpt>
      <trkpt lat="48.51101" lon="7.16251">
        <ele>917.41</ele>
        <time>2021-01-02T11:34:27.000Z</time>
      </trkpt>
      <trkpt lat="48.51094" lon="7.16242">
        <ele>916.71</ele>
        <time>2021-01-02T11:34:34.000Z</time>
      </trkpt>
      <trkpt lat="48.51091" lon="7.16227">
        <ele>914.87</ele>
        <time>2021-01-02T11:34:43.000Z</time>
      </trkpt>
      <trkpt lat="48.51092" lon="7.16214">
        <ele>912.77</ele>
        <time>2021-01-02T11:34:51.000Z</time>
      </trkpt>
      <trkpt lat="48.51096" lon="7.16201">
        <ele>910.45</ele>
        <time>2021-01-02T11:34:59.000Z</time>
      </trkpt>
      <trkpt lat="48.51095" lon="7.16185">
        <ele>914.9</ele>
        <time>2021-01-02T11:39:19.000Z</time>
      </trkpt>
      <trkpt lat="48.51087" lon="7.1619">
        <ele>913.67</ele>
        <time>2021-01-02T12:02:35.000Z</time>
      </trkpt>
      <trkpt lat="48.51083" lon="7.16178">
        <ele>912.4</ele>
        <time>2021-01-02T12:02:46.000Z</time>
      </trkpt>
      <trkpt lat="48.51074" lon="7.16171">
        <ele>912.53</ele>
        <time>2021-01-02T12:02:55.000Z</time>
      </trkpt>
      <trkpt lat="48.51067" lon="7.16164">
        <ele>913.63</ele>
        <time>2021-01-02T12:03:05.000Z</time>
      </trkpt>
      <trkpt lat="48.51059" lon="7.16157">
        <ele>914.25</ele>
        <time>2021-01-02T12:03:14.000Z</time>
      </trkpt>
      <trkpt lat="48.5105" lon="7.16152">
        <ele>915.24</ele>
        <time>2021-01-02T12:03:25.000Z</time>
      </trkpt>
      <trkpt lat="48.51044" lon="7.16142">
        <ele>917.2</ele>
        <time>2021-01-02T12:03:34.000Z</time>
      </trkpt>
      <trkpt lat="48.51036" lon="7.16135">
        <ele>918.36</ele>
        <time>2021-01-02T12:03:46.000Z</time>
      </trkpt>
      <trkpt lat="48.51029" lon="7.16127">
        <ele>918.69</ele>
        <time>2021-01-02T12:03:55.000Z</time>
      </trkpt>
      <trkpt lat="48.5102" lon="7.1612">
        <ele>919.34</ele>
        <time>2021-01-02T12:04:05.000Z</time>
      </trkpt>
      <trkpt lat="48.51012" lon="7.16112">
        <ele>919.03</ele>
        <time>2021-01-02T12:04:15.000Z</time>
      </trkpt>
      <trkpt lat="48.51005" lon="7.16103">
        <ele>920.6</ele>
        <time>2021-01-02T12:04:42.000Z</time>
      </trkpt>
      <trkpt lat="48.50996" lon="7.16103">
        <ele>921.91</ele>
        <time>2021-01-02T12:04:54.000Z</time>
      </trkpt>
      <trkpt lat="48.50987" lon="7.16106">
        <ele>922.33</ele>
        <time>2021-01-02T12:05:08.000Z</time>
      </trkpt>
      <trkpt lat="48.50985" lon="7.1612">
        <ele>917.78</ele>
        <time>2021-01-02T12:06:23.000Z</time>
      </trkpt>
      <trkpt lat="48.50986" lon="7.16134">
        <ele>918.03</ele>
        <time>2021-01-02T12:06:47.000Z</time>
      </trkpt>
      <trkpt lat="48.50991" lon="7.16146">
        <ele>916.9</ele>
        <time>2021-01-02T12:06:58.000Z</time>
      </trkpt>
      <trkpt lat="48.50997" lon="7.16157">
        <ele>917.07</ele>
        <time>2021-01-02T12:07:10.000Z</time>
      </trkpt>
      <trkpt lat="48.51001" lon="7.1617">
        <ele>917.76</ele>
        <time>2021-01-02T12:07:21.000Z</time>
      </trkpt>
      <trkpt lat="48.51007" lon="7.16181">
        <ele>917.44</ele>
        <time>2021-01-02T12:07:32.000Z</time>
      </trkpt>
      <trkpt lat="48.51015" lon="7.16189">
        <ele>916.56</ele>
        <time>2021-01-02T12:07:40.000Z</time>
      </trkpt>
      <trkpt lat="48.51022" lon="7.16199">
        <ele>915.94</ele>
        <time>2021-01-02T12:07:53.000Z</time>
      </trkpt>
      <trkpt lat="48.51029" lon="7.16207">
        <ele>913.61</ele>
        <time>2021-01-02T12:08:07.000Z</time>
      </trkpt>
      <trkpt lat="48.51029" lon="7.16221">
        <ele>912.86</ele>
        <time>2021-01-02T12:08:16.000Z</time>
      </trkpt>
      <trkpt lat="48.51033" lon="7.16233">
        <ele>909.31</ele>
        <time>2021-01-02T12:08:25.000Z</time>
      </trkpt>
      <trkpt lat="48.5104" lon="7.16244">
        <ele>906.36</ele>
        <time>2021-01-02T12:08:32.000Z</time>
      </trkpt>
      <trkpt lat="48.51045" lon="7.16256">
        <ele>902.95</ele>
        <time>2021-01-02T12:08:45.000Z</time>
      </trkpt>
      <trkpt lat="48.5105" lon="7.16267">
        <ele>900.69</ele>
        <time>2021-01-02T12:09:11.000Z</time>
      </trkpt>
      <trkpt lat="48.51057" lon="7.16275">
        <ele>899.78</ele>
        <time>2021-01-02T12:09:22.000Z</time>
      </trkpt>
      <trkpt lat="48.51063" lon="7.16286">
        <ele>898.7</ele>
        <time>2021-01-02T12:09:34.000Z</time>
      </trkpt>
      <trkpt lat="48.51068" lon="7.16298">
        <ele>898.81</ele>
        <time>2021-01-02T12:09:48.000Z</time>
      </trkpt>
      <trkpt lat="48.51075" lon="7.16308">
        <ele>897.93</ele>
        <time>2021-01-02T12:09:59.000Z</time>
      </trkpt>
      <trkpt lat="48.51081" lon="7.16318">
        <ele>895.65</ele>
        <time>2021-01-02T12:10:08.000Z</time>
      </trkpt>
      <trkpt lat="48.51086" lon="7.1633">
        <ele>894.2</ele>
        <time>2021-01-02T12:10:19.000Z</time>
      </trkpt>
      <trkpt lat="48.51086" lon="7.16345">
        <ele>893.04</ele>
        <time>2021-01-02T12:10:30.000Z</time>
      </trkpt>
      <trkpt lat="48.51088" lon="7.16359">
        <ele>891.16</ele>
        <time>2021-01-02T12:10:43.000Z</time>
      </trkpt>
      <trkpt lat="48.51088" lon="7.16372">
        <ele>888.87</ele>
        <time>2021-01-02T12:11:00.000Z</time>
      </trkpt>
      <trkpt lat="48.51091" lon="7.16386">
        <ele>881.97</ele>
        <time>2021-01-02T12:11:56.000Z</time>
      </trkpt>
      <trkpt lat="48.51094" lon="7.16399">
        <ele>882.05</ele>
        <time>2021-01-02T12:12:07.000Z</time>
      </trkpt>
      <trkpt lat="48.51086" lon="7.16393">
        <ele>882.07</ele>
        <time>2021-01-02T12:12:28.000Z</time>
      </trkpt>
      <trkpt lat="48.51078" lon="7.16387">
        <ele>882.74</ele>
        <time>2021-01-02T12:12:42.000Z</time>
      </trkpt>
      <trkpt lat="48.51071" lon="7.16376">
        <ele>876.51</ele>
        <time>2021-01-02T12:14:21.000Z</time>
      </trkpt>
      <trkpt lat="48.51062" lon="7.16371">
        <ele>876.84</ele>
        <time>2021-01-02T12:14:33.000Z</time>
      </trkpt>
      <trkpt lat="48.51052" lon="7.16367">
        <ele>876.68</ele>
        <time>2021-01-02T12:14:42.000Z</time>
      </trkpt>
      <trkpt lat="48.51043" lon="7.16362">
        <ele>876.2</ele>
        <time>2021-01-02T12:14:52.000Z</time>
      </trkpt>
      <trkpt lat="48.51034" lon="7.16357">
        <ele>875.26</ele>
        <time>2021-01-02T12:15:03.000Z</time>
      </trkpt>
      <trkpt lat="48.51025" lon="7.16349">
        <ele>874.6</ele>
        <time>2021-01-02T12:15:14.000Z</time>
      </trkpt>
      <trkpt lat="48.51017" lon="7.16343">
        <ele>874.3</ele>
        <time>2021-01-02T12:15:27.000Z</time>
      </trkpt>
      <trkpt lat="48.51008" lon="7.16343">
        <ele>873.08</ele>
        <time>2021-01-02T12:15:46.000Z</time>
      </trkpt>
      <trkpt lat="48.50999" lon="7.16339">
        <ele>872.01</ele>
        <time>2021-01-02T12:15:59.000Z</time>
      </trkpt>
      <trkpt lat="48.50991" lon="7.16342">
        <ele>870.51</ele>
        <time>2021-01-02T12:16:16.000Z</time>
      </trkpt>
      <trkpt lat="48.50982" lon="7.16345">
        <ele>869.03</ele>
        <time>2021-01-02T12:16:29.000Z</time>
      </trkpt>
      <trkpt lat="48.50972" lon="7.16344">
        <ele>866.64</ele>
        <time>2021-01-02T12:16:41.000Z</time>
      </trkpt>
      <trkpt lat="48.50965" lon="7.16335">
        <ele>863.13</ele>
        <time>2021-01-02T12:16:57.000Z</time>
      </trkpt>
      <trkpt lat="48.50957" lon="7.16326">
        <ele>861.23</ele>
        <time>2021-01-02T12:17:11.000Z</time>
      </trkpt>
      <trkpt lat="48.50949" lon="7.16317">
        <ele>859.11</ele>
        <time>2021-01-02T12:17:26.000Z</time>
      </trkpt>
      <trkpt lat="48.50942" lon="7.16308">
        <ele>857.65</ele>
        <time>2021-01-02T12:17:43.000Z</time>
      </trkpt>
      <trkpt lat="48.50933" lon="7.16312">
        <ele>860.29</ele>
        <time>2021-01-02T12:18:54.000Z</time>
      </trkpt>
      <trkpt lat="48.50924" lon="7.16313">
        <ele>858.4</ele>
        <time>2021-01-02T12:19:25.000Z</time>
      </trkpt>
      <trkpt lat="48.50915" lon="7.16319">
        <ele>854.71</ele>
        <time>2021-01-02T12:19:39.000Z</time>
      </trkpt>
      <trkpt lat="48.50907" lon="7.16324">
        <ele>850.01</ele>
        <time>2021-01-02T12:19:56.000Z</time>
      </trkpt>
      <trkpt lat="48.509" lon="7.16334">
        <ele>844.04</ele>
        <time>2021-01-02T12:20:15.000Z</time>
      </trkpt>
      <trkpt lat="48.5089" lon="7.16332">
        <ele>836.23</ele>
        <time>2021-01-02T12:21:12.000Z</time>
      </trkpt>
      <trkpt lat="48.50882" lon="7.1634">
        <ele>838.24</ele>
        <time>2021-01-02T12:21:35.000Z</time>
      </trkpt>
      <trkpt lat="48.50875" lon="7.1635">
        <ele>838.84</ele>
        <time>2021-01-02T12:21:43.000Z</time>
      </trkpt>
      <trkpt lat="48.50868" lon="7.16341">
        <ele>837.47</ele>
        <time>2021-01-02T12:22:19.000Z</time>
      </trkpt>
      <trkpt lat="48.50861" lon="7.16332">
        <ele>836.58</ele>
        <time>2021-01-02T12:22:34.000Z</time>
      </trkpt>
      <trkpt lat="48.50852" lon="7.16334">
        <ele>835.04</ele>
        <time>2021-01-02T12:22:44.000Z</time>
      </trkpt>
      <trkpt lat="48.50843" lon="7.16337">
        <ele>829.03</ele>
        <time>2021-01-02T12:23:16.000Z</time>
      </trkpt>
      <trkpt lat="48.50837" lon="7.16346">
        <ele>824.38</ele>
        <time>2021-01-02T12:23:46.000Z</time>
      </trkpt>
      <trkpt lat="48.50829" lon="7.16354">
        <ele>820.66</ele>
        <time>2021-01-02T12:24:08.000Z</time>
      </trkpt>
      <trkpt lat="48.5082" lon="7.16356">
        <ele>817.5</ele>
        <time>2021-01-02T12:24:37.000Z</time>
      </trkpt>
      <trkpt lat="48.50822" lon="7.16369">
        <ele>813.97</ele>
        <time>2021-01-02T12:24:54.000Z</time>
      </trkpt>
      <trkpt lat="48.50818" lon="7.16382">
        <ele>813.21</ele>
        <time>2021-01-02T12:25:12.000Z</time>
      </trkpt>
      <trkpt lat="48.50809" lon="7.16385">
        <ele>811.92</ele>
        <time>2021-01-02T12:25:36.000Z</time>
      </trkpt>
      <trkpt lat="48.50802" lon="7.16394">
        <ele>809.35</ele>
        <time>2021-01-02T12:25:52.000Z</time>
      </trkpt>
      <trkpt lat="48.50795" lon="7.16383">
        <ele>793.28</ele>
        <time>2021-01-02T12:27:40.000Z</time>
      </trkpt>
      <trkpt lat="48.50786" lon="7.16375">
        <ele>790.8</ele>
        <time>2021-01-02T12:28:15.000Z</time>
      </trkpt>
      <trkpt lat="48.50778" lon="7.16369">
        <ele>790.1</ele>
        <time>2021-01-02T12:28:23.000Z</time>
      </trkpt>
      <trkpt lat="48.50769" lon="7.16364">
        <ele>789.53</ele>
        <time>2021-01-02T12:28:32.000Z</time>
      </trkpt>
      <trkpt lat="48.50761" lon="7.16357">
        <ele>789.24</ele>
        <time>2021-01-02T12:28:49.000Z</time>
      </trkpt>
      <trkpt lat="48.50752" lon="7.16351">
        <ele>789.45</ele>
        <time>2021-01-02T12:28:58.000Z</time>
      </trkpt>
      <trkpt lat="48.50743" lon="7.16347">
        <ele>789.1</ele>
        <time>2021-01-02T12:29:09.000Z</time>
      </trkpt>
      <trkpt lat="48.50734" lon="7.16343">
        <ele>788.03</ele>
        <time>2021-01-02T12:29:17.000Z</time>
      </trkpt>
      <trkpt lat="48.50725" lon="7.16339">
        <ele>787.01</ele>
        <time>2021-01-02T12:29:24.000Z</time>
      </trkpt>
      <trkpt lat="48.50715" lon="7.16335">
        <ele>786.28</ele>
        <time>2021-01-02T12:29:31.000Z</time>
      </trkpt>
      <trkpt lat="48.50707" lon="7.16328">
        <ele>785.6</ele>
        <time>2021-01-02T12:29:39.000Z</time>
      </trkpt>
      <trkpt lat="48.50699" lon="7.16323">
        <ele>784.53</ele>
        <time>2021-01-02T12:29:49.000Z</time>
      </trkpt>
      <trkpt lat="48.50691" lon="7.16314">
        <ele>783.99</ele>
        <time>2021-01-02T12:29:59.000Z</time>
      </trkpt>
      <trkpt lat="48.50684" lon="7.16303">
        <ele>782.63</ele>
        <time>2021-01-02T12:30:10.000Z</time>
      </trkpt>
      <trkpt lat="48.50681" lon="7.1629">
        <ele>781.48</ele>
        <time>2021-01-02T12:30:17.000Z</time>
      </trkpt>
      <trkpt lat="48.50678" lon="7.16275">
        <ele>776.82</ele>
        <time>2021-01-02T12:30:26.000Z</time>
      </trkpt>
      <trkpt lat="48.50677" lon="7.16261">
        <ele>775.01</ele>
        <time>2021-01-02T12:30:37.000Z</time>
      </trkpt>
      <trkpt lat="48.50674" lon="7.16246">
        <ele>774.43</ele>
        <time>2021-01-02T12:30:46.000Z</time>
      </trkpt>
      <trkpt lat="48.50668" lon="7.16234">
        <ele>774.79</ele>
        <time>2021-01-02T12:30:56.000Z</time>
      </trkpt>
      <trkpt lat="48.50665" lon="7.16221">
        <ele>774.89</ele>
        <time>2021-01-02T12:31:10.000Z</time>
      </trkpt>
      <trkpt lat="48.50661" lon="7.16206">
        <ele>774.87</ele>
        <time>2021-01-02T12:31:21.000Z</time>
      </trkpt>
      <trkpt lat="48.50657" lon="7.16194">
        <ele>775.36</ele>
        <time>2021-01-02T12:31:30.000Z</time>
      </trkpt>
      <trkpt lat="48.50654" lon="7.16181">
        <ele>776.4</ele>
        <time>2021-01-02T12:31:38.000Z</time>
      </trkpt>
      <trkpt lat="48.50653" lon="7.16167">
        <ele>777.9</ele>
        <time>2021-01-02T12:31:46.000Z</time>
      </trkpt>
      <trkpt lat="48.50653" lon="7.16152">
        <ele>778.93</ele>
        <time>2021-01-02T12:31:54.000Z</time>
      </trkpt>
      <trkpt lat="48.50652" lon="7.16138">
        <ele>779.46</ele>
        <time>2021-01-02T12:32:02.000Z</time>
      </trkpt>
      <trkpt lat="48.50653" lon="7.16123">
        <ele>779.94</ele>
        <time>2021-01-02T12:32:10.000Z</time>
      </trkpt>
      <trkpt lat="48.50653" lon="7.16109">
        <ele>780.14</ele>
        <time>2021-01-02T12:32:18.000Z</time>
      </trkpt>
      <trkpt lat="48.50651" lon="7.16095">
        <ele>780.66</ele>
        <time>2021-01-02T12:32:26.000Z</time>
      </trkpt>
      <trkpt lat="48.50651" lon="7.1608">
        <ele>780.47</ele>
        <time>2021-01-02T12:32:35.000Z</time>
      </trkpt>
      <trkpt lat="48.50653" lon="7.16066">
        <ele>779.93</ele>
        <time>2021-01-02T12:32:44.000Z</time>
      </trkpt>
      <trkpt lat="48.50653" lon="7.16052">
        <ele>779.09</ele>
        <time>2021-01-02T12:32:52.000Z</time>
      </trkpt>
      <trkpt lat="48.50655" lon="7.16038">
        <ele>778.9</ele>
        <time>2021-01-02T12:33:00.000Z</time>
      </trkpt>
      <trkpt lat="48.50657" lon="7.16024">
        <ele>778.03</ele>
        <time>2021-01-02T12:33:10.000Z</time>
      </trkpt>
      <trkpt lat="48.50656" lon="7.1601">
        <ele>776.4</ele>
        <time>2021-01-02T12:33:20.000Z</time>
      </trkpt>
      <trkpt lat="48.50659" lon="7.15997">
        <ele>775.88</ele>
        <time>2021-01-02T12:33:28.000Z</time>
      </trkpt>
      <trkpt lat="48.5066" lon="7.15983">
        <ele>775.19</ele>
        <time>2021-01-02T12:33:38.000Z</time>
      </trkpt>
      <trkpt lat="48.50662" lon="7.15969">
        <ele>775.14</ele>
        <time>2021-01-02T12:33:48.000Z</time>
      </trkpt>
      <trkpt lat="48.50662" lon="7.15955">
        <ele>775.06</ele>
        <time>2021-01-02T12:33:58.000Z</time>
      </trkpt>
      <trkpt lat="48.50663" lon="7.15941">
        <ele>775.24</ele>
        <time>2021-01-02T12:34:08.000Z</time>
      </trkpt>
      <trkpt lat="48.50665" lon="7.15927">
        <ele>775.17</ele>
        <time>2021-01-02T12:34:16.000Z</time>
      </trkpt>
      <trkpt lat="48.50665" lon="7.15912">
        <ele>774.99</ele>
        <time>2021-01-02T12:34:25.000Z</time>
      </trkpt>
      <trkpt lat="48.50667" lon="7.15899">
        <ele>774.2</ele>
        <time>2021-01-02T12:34:33.000Z</time>
      </trkpt>
      <trkpt lat="48.50666" lon="7.15885">
        <ele>772.9</ele>
        <time>2021-01-02T12:34:44.000Z</time>
      </trkpt>
      <trkpt lat="48.50659" lon="7.15876">
        <ele>772.89</ele>
        <time>2021-01-02T12:35:10.000Z</time>
      </trkpt>
      <trkpt lat="48.50658" lon="7.15863">
        <ele>774.27</ele>
        <time>2021-01-02T12:35:18.000Z</time>
      </trkpt>
      <trkpt lat="48.50661" lon="7.15849">
        <ele>777.52</ele>
        <time>2021-01-02T12:35:27.000Z</time>
      </trkpt>
      <trkpt lat="48.50662" lon="7.15834">
        <ele>780.18</ele>
        <time>2021-01-02T12:35:39.000Z</time>
      </trkpt>
      <trkpt lat="48.50661" lon="7.15819">
        <ele>781.09</ele>
        <time>2021-01-02T12:35:48.000Z</time>
      </trkpt>
      <trkpt lat="48.5066" lon="7.15804">
        <ele>780.41</ele>
        <time>2021-01-02T12:35:56.000Z</time>
      </trkpt>
      <trkpt lat="48.50657" lon="7.1579">
        <ele>779.6</ele>
        <time>2021-01-02T12:36:04.000Z</time>
      </trkpt>
      <trkpt lat="48.50657" lon="7.15776">
        <ele>778.67</ele>
        <time>2021-01-02T12:36:13.000Z</time>
      </trkpt>
      <trkpt lat="48.50655" lon="7.15761">
        <ele>778.74</ele>
        <time>2021-01-02T12:36:22.000Z</time>
      </trkpt>
      <trkpt lat="48.50655" lon="7.15747">
        <ele>778.87</ele>
        <time>2021-01-02T12:36:29.000Z</time>
      </trkpt>
      <trkpt lat="48.50653" lon="7.15733">
        <ele>778.5</ele>
        <time>2021-01-02T12:36:36.000Z</time>
      </trkpt>
      <trkpt lat="48.50652" lon="7.15719">
        <ele>777.53</ele>
        <time>2021-01-02T12:36:44.000Z</time>
      </trkpt>
      <trkpt lat="48.50652" lon="7.15705">
        <ele>775.64</ele>
        <time>2021-01-02T12:36:52.000Z</time>
      </trkpt>
      <trkpt lat="48.5065" lon="7.1569">
        <ele>773.56</ele>
        <time>2021-01-02T12:37:00.000Z</time>
      </trkpt>
      <trkpt lat="48.50648" lon="7.15675">
        <ele>771.55</ele>
        <time>2021-01-02T12:37:10.000Z</time>
      </trkpt>
      <trkpt lat="48.50648" lon="7.15661">
        <ele>770.15</ele>
        <time>2021-01-02T12:37:17.000Z</time>
      </trkpt>
      <trkpt lat="48.50646" lon="7.15647">
        <ele>768.06</ele>
        <time>2021-01-02T12:37:25.000Z</time>
      </trkpt>
      <trkpt lat="48.50644" lon="7.15633">
        <ele>764.91</ele>
        <time>2021-01-02T12:37:35.000Z</time>
      </trkpt>
      <trkpt lat="48.50642" lon="7.15619">
        <ele>762.12</ele>
        <time>2021-01-02T12:37:43.000Z</time>
      </trkpt>
      <trkpt lat="48.50642" lon="7.15605">
        <ele>759.67</ele>
        <time>2021-01-02T12:37:51.000Z</time>
      </trkpt>
      <trkpt lat="48.50643" lon="7.1559">
        <ele>756.88</ele>
        <time>2021-01-02T12:37:59.000Z</time>
      </trkpt>
      <trkpt lat="48.50642" lon="7.15575">
        <ele>754.17</ele>
        <time>2021-01-02T12:38:07.000Z</time>
      </trkpt>
      <trkpt lat="48.50639" lon="7.15562">
        <ele>751.47</ele>
        <time>2021-01-02T12:38:15.000Z</time>
      </trkpt>
      <trkpt lat="48.50636" lon="7.15548">
        <ele>749.28</ele>
        <time>2021-01-02T12:38:24.000Z</time>
      </trkpt>
      <trkpt lat="48.50637" lon="7.15535">
        <ele>747.64</ele>
        <time>2021-01-02T12:38:32.000Z</time>
      </trkpt>
      <trkpt lat="48.50634" lon="7.15521">
        <ele>745.56</ele>
        <time>2021-01-02T12:38:40.000Z</time>
      </trkpt>
      <trkpt lat="48.50632" lon="7.15507">
        <ele>742.48</ele>
        <time>2021-01-02T12:38:48.000Z</time>
      </trkpt>
      <trkpt lat="48.5063" lon="7.15492">
        <ele>739.64</ele>
        <time>2021-01-02T12:38:57.000Z</time>
      </trkpt>
      <trkpt lat="48.50627" lon="7.15479">
        <ele>737.14</ele>
        <time>2021-01-02T12:39:07.000Z</time>
      </trkpt>
      <trkpt lat="48.50624" lon="7.15465">
        <ele>734.4</ele>
        <time>2021-01-02T12:39:15.000Z</time>
      </trkpt>
      <trkpt lat="48.50623" lon="7.15452">
        <ele>731.24</ele>
        <time>2021-01-02T12:39:24.000Z</time>
      </trkpt>
      <trkpt lat="48.50615" lon="7.15445">
        <ele>728.45</ele>
        <time>2021-01-02T12:39:37.000Z</time>
      </trkpt>
      <trkpt lat="48.50607" lon="7.15435">
        <ele>731.82</ele>
        <time>2021-01-02T12:41:10.000Z</time>
      </trkpt>
      <trkpt lat="48.50616" lon="7.15433">
        <ele>733.69</ele>
        <time>2021-01-02T12:41:51.000Z</time>
      </trkpt>
      <trkpt lat="48.50615" lon="7.15419">
        <ele>734.64</ele>
        <time>2021-01-02T12:42:07.000Z</time>
      </trkpt>
      <trkpt lat="48.50609" lon="7.15407">
        <ele>734.9</ele>
        <time>2021-01-02T12:42:18.000Z</time>
      </trkpt>
      <trkpt lat="48.50604" lon="7.15395">
        <ele>734.24</ele>
        <time>2021-01-02T12:42:27.000Z</time>
      </trkpt>
      <trkpt lat="48.50599" lon="7.15383">
        <ele>733.67</ele>
        <time>2021-01-02T12:42:37.000Z</time>
      </trkpt>
      <trkpt lat="48.50596" lon="7.1537">
        <ele>732.81</ele>
        <time>2021-01-02T12:42:44.000Z</time>
      </trkpt>
      <trkpt lat="48.50592" lon="7.15356">
        <ele>731.61</ele>
        <time>2021-01-02T12:42:52.000Z</time>
      </trkpt>
      <trkpt lat="48.50589" lon="7.15342">
        <ele>730.53</ele>
        <time>2021-01-02T12:43:00.000Z</time>
      </trkpt>
      <trkpt lat="48.50586" lon="7.15329">
        <ele>729.01</ele>
        <time>2021-01-02T12:43:08.000Z</time>
      </trkpt>
      <trkpt lat="48.50584" lon="7.15315">
        <ele>726.66</ele>
        <time>2021-01-02T12:43:16.000Z</time>
      </trkpt>
      <trkpt lat="48.50582" lon="7.153">
        <ele>724.95</ele>
        <time>2021-01-02T12:43:25.000Z</time>
      </trkpt>
      <trkpt lat="48.50581" lon="7.15287">
        <ele>723.06</ele>
        <time>2021-01-02T12:43:33.000Z</time>
      </trkpt>
      <trkpt lat="48.50579" lon="7.15273">
        <ele>720.94</ele>
        <time>2021-01-02T12:43:41.000Z</time>
      </trkpt>
      <trkpt lat="48.50577" lon="7.15259">
        <ele>718.94</ele>
        <time>2021-01-02T12:43:49.000Z</time>
      </trkpt>
      <trkpt lat="48.50577" lon="7.15245">
        <ele>717.53</ele>
        <time>2021-01-02T12:43:57.000Z</time>
      </trkpt>
      <trkpt lat="48.50578" lon="7.1523">
        <ele>715.64</ele>
        <time>2021-01-02T12:44:05.000Z</time>
      </trkpt>
      <trkpt lat="48.50577" lon="7.15215">
        <ele>714.23</ele>
        <time>2021-01-02T12:44:13.000Z</time>
      </trkpt>
      <trkpt lat="48.50574" lon="7.15202">
        <ele>712.11</ele>
        <time>2021-01-02T12:44:24.000Z</time>
      </trkpt>
      <trkpt lat="48.50572" lon="7.15187">
        <ele>710.11</ele>
        <time>2021-01-02T12:44:34.000Z</time>
      </trkpt>
      <trkpt lat="48.50571" lon="7.15172">
        <ele>707.94</ele>
        <time>2021-01-02T12:44:43.000Z</time>
      </trkpt>
      <trkpt lat="48.50568" lon="7.15158">
        <ele>706.04</ele>
        <time>2021-01-02T12:44:51.000Z</time>
      </trkpt>
      <trkpt lat="48.50565" lon="7.15143">
        <ele>703.57</ele>
        <time>2021-01-02T12:45:00.000Z</time>
      </trkpt>
      <trkpt lat="48.50562" lon="7.1513">
        <ele>701.73</ele>
        <time>2021-01-02T12:45:08.000Z</time>
      </trkpt>
      <trkpt lat="48.5056" lon="7.15117">
        <ele>699.66</ele>
        <time>2021-01-02T12:45:17.000Z</time>
      </trkpt>
      <trkpt lat="48.50558" lon="7.15101">
        <ele>698.52</ele>
        <time>2021-01-02T12:45:25.000Z</time>
      </trkpt>
      <trkpt lat="48.50556" lon="7.15088">
        <ele>697.65</ele>
        <time>2021-01-02T12:45:34.000Z</time>
      </trkpt>
      <trkpt lat="48.50555" lon="7.15075">
        <ele>696.97</ele>
        <time>2021-01-02T12:45:46.000Z</time>
      </trkpt>
      <trkpt lat="48.50556" lon="7.15061">
        <ele>696.32</ele>
        <time>2021-01-02T12:45:53.000Z</time>
      </trkpt>
      <trkpt lat="48.50559" lon="7.15047">
        <ele>695.57</ele>
        <time>2021-01-02T12:46:01.000Z</time>
      </trkpt>
      <trkpt lat="48.50563" lon="7.15035">
        <ele>695.3</ele>
        <time>2021-01-02T12:46:10.000Z</time>
      </trkpt>
      <trkpt lat="48.50565" lon="7.15021">
        <ele>694.98</ele>
        <time>2021-01-02T12:46:20.000Z</time>
      </trkpt>
      <trkpt lat="48.5057" lon="7.15008">
        <ele>694.7</ele>
        <time>2021-01-02T12:46:30.000Z</time>
      </trkpt>
      <trkpt lat="48.50577" lon="7.14998">
        <ele>693.49</ele>
        <time>2021-01-02T12:46:41.000Z</time>
      </trkpt>
      <trkpt lat="48.50584" lon="7.14989">
        <ele>691.6</ele>
        <time>2021-01-02T12:46:54.000Z</time>
      </trkpt>
      <trkpt lat="48.5059" lon="7.14976">
        <ele>690</ele>
        <time>2021-01-02T12:47:03.000Z</time>
      </trkpt>
      <trkpt lat="48.50597" lon="7.14966">
        <ele>688.91</ele>
        <time>2021-01-02T12:47:13.000Z</time>
      </trkpt>
      <trkpt lat="48.50602" lon="7.14955">
        <ele>686.98</ele>
        <time>2021-01-02T12:47:25.000Z</time>
      </trkpt>
      <trkpt lat="48.50608" lon="7.14944">
        <ele>684.98</ele>
        <time>2021-01-02T12:47:36.000Z</time>
      </trkpt>
      <trkpt lat="48.50615" lon="7.14933">
        <ele>683.93</ele>
        <time>2021-01-02T12:47:44.000Z</time>
      </trkpt>
      <trkpt lat="48.50621" lon="7.14922">
        <ele>682.59</ele>
        <time>2021-01-02T12:47:52.000Z</time>
      </trkpt>
      <trkpt lat="48.50627" lon="7.14909">
        <ele>680.82</ele>
        <time>2021-01-02T12:48:02.000Z</time>
      </trkpt>
      <trkpt lat="48.50631" lon="7.14895">
        <ele>679.27</ele>
        <time>2021-01-02T12:48:12.000Z</time>
      </trkpt>
      <trkpt lat="48.50635" lon="7.14882">
        <ele>678.33</ele>
        <time>2021-01-02T12:48:21.000Z</time>
      </trkpt>
      <trkpt lat="48.50637" lon="7.14866">
        <ele>678.05</ele>
        <time>2021-01-02T12:48:29.000Z</time>
      </trkpt>
      <trkpt lat="48.50638" lon="7.14851">
        <ele>677.19</ele>
        <time>2021-01-02T12:48:38.000Z</time>
      </trkpt>
      <trkpt lat="48.5064" lon="7.14837">
        <ele>676.05</ele>
        <time>2021-01-02T12:48:47.000Z</time>
      </trkpt>
      <trkpt lat="48.50643" lon="7.14823">
        <ele>674.1</ele>
        <time>2021-01-02T12:48:56.000Z</time>
      </trkpt>
      <trkpt lat="48.50646" lon="7.1481">
        <ele>672.22</ele>
        <time>2021-01-02T12:49:06.000Z</time>
      </trkpt>
      <trkpt lat="48.50649" lon="7.14797">
        <ele>670.7</ele>
        <time>2021-01-02T12:49:15.000Z</time>
      </trkpt>
      <trkpt lat="48.50651" lon="7.14783">
        <ele>670.12</ele>
        <time>2021-01-02T12:49:25.000Z</time>
      </trkpt>
      <trkpt lat="48.50655" lon="7.1477">
        <ele>671.71</ele>
        <time>2021-01-02T12:49:41.000Z</time>
      </trkpt>
      <trkpt lat="48.50651" lon="7.14757">
        <ele>670.9</ele>
        <time>2021-01-02T12:50:01.000Z</time>
      </trkpt>
      <trkpt lat="48.50648" lon="7.14744">
        <ele>669.46</ele>
        <time>2021-01-02T12:51:01.000Z</time>
      </trkpt>
      <trkpt lat="48.50655" lon="7.14734">
        <ele>668.96</ele>
        <time>2021-01-02T12:51:14.000Z</time>
      </trkpt>
      <trkpt lat="48.50663" lon="7.14728">
        <ele>668.42</ele>
        <time>2021-01-02T12:51:30.000Z</time>
      </trkpt>
      <trkpt lat="48.50672" lon="7.14722">
        <ele>669.86</ele>
        <time>2021-01-02T12:51:42.000Z</time>
      </trkpt>
      <trkpt lat="48.50677" lon="7.14718">
        <ele>671.57</ele>
        <time>2021-01-02T12:52:05.000Z</time>
      </trkpt>
    </trkseg>
  </trk>
</gpx>